Observation data for Persimmon Gap on 10/17/2019      Previous  Date       Current Mesonet Observations  Soil Data  Daily Summary Page  Observations in Plain Language
KPG1 170500Z 01011KT 17/03 A3015 RMK A01 T01690026  RH  038%=      5-min Rain = 0
KPG1 170501Z 01011KT 17/03 A3015 RMK A01 T01690025  RH  038%=      5-min Rain = 0
KPG1 170502Z 01012KT 17/03 A3015 RMK A01 T01690025  RH  038%=      5-min Rain = 0
KPG1 170503Z 00013KT 17/03 A3015 RMK A01 T01700025  RH  038%=      5-min Rain = 0
KPG1 170504Z 01012KT 17/03 A3015 RMK A01 T01700025  RH  038%=      5-min Rain = 0
KPG1 170505Z 00013KT 17/03 A3015 RMK A01 T01700025  RH  038%=      5-min Rain = 0
KPG1 170506Z 01013KT 17/03 A3015 RMK A01 T01700025  RH  038%=      5-min Rain = 0
KPG1 170507Z 01012KT 17/03 A3015 RMK A01 T01710025  RH  038%=      5-min Rain = 0
KPG1 170508Z 01012KT 17/03 A3015 RMK A01 T01710025  RH  038%=      5-min Rain = 0
KPG1 170509Z 00014KT 17/03 A3015 RMK A01 T01710025  RH  038%=      5-min Rain = 0
KPG1 170510Z 01013KT 17/03 A3015 RMK A01 T01710026  RH  038%=      5-min Rain = 0
KPG1 170511Z 01012KT 17/03 A3015 RMK A01 T01700026  RH  038%=      5-min Rain = 0
KPG1 170512Z 01012KT 17/03 A3015 RMK A01 T01700026  RH  038%=      5-min Rain = 0
KPG1 170513Z 01013KT 17/03 A3014 RMK A01 T01700025  RH  038%=      5-min Rain = 0
KPG1 170514Z 01013KT 17/03 A3014 RMK A01 T01700025  RH  038%=      5-min Rain = 0
KPG1 170515Z 01012KT 17/03 A3014 RMK A01 T01700025  RH  038%=      5-min Rain = 0
KPG1 170516Z 00013KT 17/03 A3014 RMK A01 T01700025  RH  038%=      5-min Rain = 0
KPG1 170517Z 00013KT 17/03 A3014 RMK A01 T01700025  RH  038%=      5-min Rain = 0
KPG1 170518Z 00014KT 17/03 A3014 RMK A01 T01700025  RH  038%=      5-min Rain = 0
KPG1 170519Z 00012KT 17/03 A3014 RMK A01 T01700025  RH  038%=      5-min Rain = 0
KPG1 170520Z 01012KT 17/03 A3014 RMK A01 T01700025  RH  038%=      5-min Rain = 0
KPG1 170521Z 01012KT 17/03 A3014 RMK A01 T01700025  RH  038%=      5-min Rain = 0
KPG1 170522Z 01013KT 17/03 A3014 RMK A01 T01700025  RH  038%=      5-min Rain = 0
KPG1 170523Z 00012KT 17/02 A3014 RMK A01 T01700024  RH  038%=      5-min Rain = 0
KPG1 170524Z 01013KT 17/02 A3014 RMK A01 T01700024  RH  038%=      5-min Rain = 0
KPG1 170525Z 01012KT 17/02 A3014 RMK A01 T01700023  RH  037%=      5-min Rain = 0
KPG1 170526Z 01013KT 17/02 A3014 RMK A01 T01700024  RH  037%=      5-min Rain = 0
KPG1 170527Z 01013KT 17/02 A3014 RMK A01 T01710024  RH  037%=      5-min Rain = 0
KPG1 170528Z 01011KT 17/02 A3014 RMK A01 T01710024  RH  037%=      5-min Rain = 0
KPG1 170529Z 01013KT 17/02 A3014 RMK A01 T01700024  RH  037%=      5-min Rain = 0
KPG1 170530Z 01012KT 17/02 A3014 RMK A01 T01710024  RH  037%=      5-min Rain = 0
KPG1 170531Z 01011KT 17/02 A3014 RMK A01 T01700024  RH  038%=      5-min Rain = 0
KPG1 170532Z 01012KT 17/02 A3014 RMK A01 T01690024  RH  038%=      5-min Rain = 0
KPG1 170533Z 01011KT 17/02 A3014 RMK A01 T01700024  RH  038%=      5-min Rain = 0
KPG1 170534Z 01011KT 17/02 A3014 RMK A01 T01690024  RH  038%=      5-min Rain = 0
KPG1 170535Z 01011KT 17/02 A3014 RMK A01 T01690024  RH  038%=      5-min Rain = 0
KPG1 170536Z 01011KT 17/02 A3014 RMK A01 T01690024  RH  038%=      5-min Rain = 0
KPG1 170537Z 01012KT 17/02 A3014 RMK A01 T01690024  RH  038%=      5-min Rain = 0
KPG1 170538Z 01012KT 17/02 A3013 RMK A01 T01690023  RH  037%=      5-min Rain = 0
KPG1 170539Z 01012KT 17/02 A3013 RMK A01 T01690023  RH  037%=      5-min Rain = 0
KPG1 170540Z 01011KT 17/02 A3013 RMK A01 T01690022  RH  037%=      5-min Rain = 0
KPG1 170541Z 01012KT 17/02 A3013 RMK A01 T01690022  RH  037%=      5-min Rain = 0
KPG1 170542Z 01012KT 17/02 A3013 RMK A01 T01690022  RH  037%=      5-min Rain = 0
KPG1 170543Z 01011KT 17/02 A3013 RMK A01 T01700022  RH  037%=      5-min Rain = 0
KPG1 170544Z 01011KT 17/02 A3013 RMK A01 T01700022  RH  037%=      5-min Rain = 0
KPG1 170545Z 02010KT 17/02 A3013 RMK A01 T01700022  RH  037%=      5-min Rain = 0
KPG1 170546Z 02011KT 17/02 A3013 RMK A01 T01700022  RH  037%=      5-min Rain = 0
KPG1 170547Z 02012KT 17/02 A3013 RMK A01 T01690021  RH  037%=      5-min Rain = 0
KPG1 170548Z 02012KT 17/02 A3013 RMK A01 T01700021  RH  037%=      5-min Rain = 0
KPG1 170549Z 02013KT 17/02 A3013 RMK A01 T01700021  RH  037%=      5-min Rain = 0
KPG1 170550Z 02012KT 17/02 A3013 RMK A01 T01710020  RH  036%=      5-min Rain = 0
KPG1 170551Z 02011KT 17/02 A3013 RMK A01 T01710020  RH  036%=      5-min Rain = 0
KPG1 170552Z 02013KT 17/02 A3013 RMK A01 T01710021  RH  036%=      5-min Rain = 0
KPG1 170553Z 02010KT 17/02 A3013 RMK A01 T01710020  RH  036%=      5-min Rain = 0
KPG1 170554Z 02013KT 17/02 A3013 RMK A01 T01700021  RH  036%=      5-min Rain = 0
KPG1 170555Z 02012KT 17/02 A3013 RMK A01 T01700020  RH  036%=      5-min Rain = 0
KPG1 170556Z 02013KT 17/02 A3013 RMK A01 T01700020  RH  036%=      5-min Rain = 0
KPG1 170557Z 02013KT 17/02 A3013 RMK A01 T01700020  RH  036%=      5-min Rain = 0
KPG1 170558Z 02013KT 17/02 A3013 RMK A01 T01710020  RH  036%=      5-min Rain = 0
KPG1 170559Z 02013KT 17/02 A3013 RMK A01 T01700020  RH  036%=      5-min Rain = 0
KPG1 170600Z 02012KT 17/02 A3013 RMK A01 T01710020  RH  036%=      5-min Rain = 0
KPG1 170601Z 02013KT 17/02 A3013 RMK A01 T01700020  RH  036%=      5-min Rain = 0
KPG1 170602Z 02013KT 17/02 A3013 RMK A01 T01700020  RH  036%=      5-min Rain = 0
KPG1 170603Z 02012KT 17/02 A3013 RMK A01 T01710020  RH  036%=      5-min Rain = 0
KPG1 170604Z 02011KT 17/02 A3013 RMK A01 T01710021  RH  036%=      5-min Rain = 0
KPG1 170605Z 01010KT 17/02 A3013 RMK A01 T01700021  RH  037%=      5-min Rain = 0
KPG1 170606Z 01011KT 17/02 A3013 RMK A01 T01700021  RH  037%=      5-min Rain = 0
KPG1 170607Z 01012KT 17/02 A3013 RMK A01 T01700022  RH  037%=      5-min Rain = 0
KPG1 170608Z 01011KT 17/02 A3013 RMK A01 T01690022  RH  037%=      5-min Rain = 0
KPG1 170609Z 01011KT 17/02 A3013 RMK A01 T01690022  RH  037%=      5-min Rain = 0
KPG1 170610Z 01012KT 17/02 A3013 RMK A01 T01690022  RH  037%=      5-min Rain = 0
KPG1 170611Z 02013KT 17/02 A3013 RMK A01 T01690022  RH  037%=      5-min Rain = 0
KPG1 170612Z 02011KT 17/02 A3013 RMK A01 T01690022  RH  037%=      5-min Rain = 0
KPG1 170613Z 01011KT 17/02 A3013 RMK A01 T01690022  RH  037%=      5-min Rain = 0
KPG1 170614Z 01012KT 17/02 A3013 RMK A01 T01690022  RH  037%=      5-min Rain = 0
KPG1 170615Z 02011KT 17/02 A3013 RMK A01 T01690022  RH  037%=      5-min Rain = 0
KPG1 170616Z 01011KT 17/02 A3013 RMK A01 T01700022  RH  037%=      5-min Rain = 0
KPG1 170617Z 02013KT 17/02 A3013 RMK A01 T01700022  RH  037%=      5-min Rain = 0
KPG1 170618Z 02012KT 17/02 A3013 RMK A01 T01690022  RH  037%=      5-min Rain = 0
KPG1 170619Z 02012KT 17/02 A3013 RMK A01 T01700022  RH  037%=      5-min Rain = 0
KPG1 170620Z 02014KT 17/02 A3013 RMK A01 T01690022  RH  037%=      5-min Rain = 0
KPG1 170621Z 01011KT 17/02 A3013 RMK A01 T01690022  RH  037%=      5-min Rain = 0
KPG1 170622Z 02012KT 17/02 A3013 RMK A01 T01690022  RH  037%=      5-min Rain = 0
KPG1 170623Z 02013KT 17/02 A3012 RMK A01 T01690022  RH  037%=      5-min Rain = 0
KPG1 170624Z 01011KT 17/02 A3012 RMK A01 T01690022  RH  037%=      5-min Rain = 0
KPG1 170625Z 02011KT 17/02 A3012 RMK A01 T01690022  RH  037%=      5-min Rain = 0
KPG1 170626Z 02010KT 17/02 A3012 RMK A01 T01690022  RH  037%=      5-min Rain = 0
KPG1 170627Z 01012KT 17/02 A3012 RMK A01 T01680022  RH  037%=      5-min Rain = 0
KPG1 170628Z 01011KT 17/02 A3012 RMK A01 T01680022  RH  037%=      5-min Rain = 0
KPG1 170629Z 01013KT 17/02 A3012 RMK A01 T01680022  RH  037%=      5-min Rain = 0
KPG1 170630Z 01012KT 17/02 A3012 RMK A01 T01680023  RH  038%=      5-min Rain = 0
KPG1 170631Z 01012KT 17/02 A3012 RMK A01 T01680023  RH  038%=      5-min Rain = 0
KPG1 170632Z 01012KT 17/02 A3012 RMK A01 T01680023  RH  038%=      5-min Rain = 0
KPG1 170633Z 01011KT 17/02 A3012 RMK A01 T01670023  RH  038%=      5-min Rain = 0
KPG1 170634Z 01012KT 17/02 A3012 RMK A01 T01670023  RH  038%=      5-min Rain = 0
KPG1 170635Z 02012KT 17/02 A3012 RMK A01 T01670023  RH  038%=      5-min Rain = 0
KPG1 170636Z 01012KT 17/02 A3012 RMK A01 T01670023  RH  038%=      5-min Rain = 0
KPG1 170637Z 01013KT 17/02 A3012 RMK A01 T01670024  RH  038%=      5-min Rain = 0
KPG1 170638Z 01013KT 17/02 A3012 RMK A01 T01660024  RH  038%=      5-min Rain = 0
KPG1 170639Z 02012KT 17/02 A3012 RMK A01 T01660024  RH  038%=      5-min Rain = 0
KPG1 170640Z 01011KT 17/02 A3012 RMK A01 T01650023  RH  038%=      5-min Rain = 0
KPG1 170641Z 01011KT 17/02 A3012 RMK A01 T01650023  RH  039%=      5-min Rain = 0
KPG1 170642Z 01012KT 17/02 A3012 RMK A01 T01650023  RH  039%=      5-min Rain = 0
KPG1 170643Z 01012KT 17/02 A3012 RMK A01 T01650024  RH  039%=      5-min Rain = 0
KPG1 170644Z 01011KT 17/02 A3012 RMK A01 T01650024  RH  039%=      5-min Rain = 0
KPG1 170645Z 01012KT 16/02 A3012 RMK A01 T01640024  RH  039%=      5-min Rain = 0
KPG1 170646Z 01013KT 16/02 A3012 RMK A01 T01640024  RH  039%=      5-min Rain = 0
KPG1 170647Z 01012KT 16/02 A3012 RMK A01 T01640024  RH  039%=      5-min Rain = 0
KPG1 170648Z 02011KT 16/02 A3012 RMK A01 T01640024  RH  039%=      5-min Rain = 0
KPG1 170649Z 01012KT 16/02 A3012 RMK A01 T01640023  RH  039%=      5-min Rain = 0
KPG1 170650Z 01012KT 16/02 A3012 RMK A01 T01640024  RH  039%=      5-min Rain = 0
KPG1 170651Z 01010KT 16/02 A3012 RMK A01 T01640024  RH  039%=      5-min Rain = 0
KPG1 170652Z 01011KT 16/02 A3012 RMK A01 T01640024  RH  039%=      5-min Rain = 0
KPG1 170653Z 01012KT 16/02 A3012 RMK A01 T01630024  RH  039%=      5-min Rain = 0
KPG1 170654Z 01012KT 16/02 A3012 RMK A01 T01630024  RH  039%=      5-min Rain = 0
KPG1 170655Z 01011KT 16/02 A3012 RMK A01 T01630024  RH  039%=      5-min Rain = 0
KPG1 170656Z 01013KT 16/02 A3012 RMK A01 T01630024  RH  039%=      5-min Rain = 0
KPG1 170657Z 01012KT 16/03 A3012 RMK A01 T01630025  RH  039%=      5-min Rain = 0
KPG1 170658Z 01012KT 16/03 A3012 RMK A01 T01630025  RH  039%=      5-min Rain = 0
KPG1 170659Z 01012KT 16/02 A3012 RMK A01 T01630024  RH  039%=      5-min Rain = 0
KPG1 170700Z 01013KT 16/02 A3012 RMK A01 T01630023  RH  039%=      5-min Rain = 0
KPG1 170701Z 01013KT 16/02 A3012 RMK A01 T01630023  RH  039%=      5-min Rain = 0
KPG1 170702Z 01013KT 16/02 A3012 RMK A01 T01630023  RH  039%=      5-min Rain = 0
KPG1 170703Z 01012KT 16/02 A3012 RMK A01 T01630023  RH  039%=      5-min Rain = 0
KPG1 170704Z 01011KT 16/02 A3012 RMK A01 T01640022  RH  039%=      5-min Rain = 0
KPG1 170705Z 01012KT 16/02 A3012 RMK A01 T01640024  RH  039%=      5-min Rain = 0
KPG1 170706Z 01013KT 16/02 A3012 RMK A01 T01630024  RH  039%=      5-min Rain = 0
KPG1 170707Z 01012KT 16/02 A3012 RMK A01 T01630024  RH  039%=      5-min Rain = 0
KPG1 170708Z 00012KT 16/02 A3011 RMK A01 T01630024  RH  039%=      5-min Rain = 0
KPG1 170709Z 00014KT 16/02 A3011 RMK A01 T01630024  RH  039%=      5-min Rain = 0
KPG1 170710Z 00014KT 16/02 A3011 RMK A01 T01630023  RH  039%=      5-min Rain = 0
KPG1 170711Z 00015KT 16/02 A3011 RMK A01 T01630023  RH  039%=      5-min Rain = 0
KPG1 170712Z 01014KT 16/02 A3011 RMK A01 T01620022  RH  039%=      5-min Rain = 0
KPG1 170713Z 00014KT 16/02 A3011 RMK A01 T01620023  RH  039%=      5-min Rain = 0
KPG1 170714Z 01014KT 16/02 A3011 RMK A01 T01630023  RH  039%=      5-min Rain = 0
KPG1 170715Z 01012KT 16/02 A3011 RMK A01 T01630023  RH  039%=      5-min Rain = 0
KPG1 170716Z 01011KT 16/02 A3011 RMK A01 T01630021  RH  039%=      5-min Rain = 0
KPG1 170717Z 01011KT 16/02 A3011 RMK A01 T01630021  RH  038%=      5-min Rain = 0
KPG1 170718Z 02012KT 16/02 A3011 RMK A01 T01630020  RH  038%=      5-min Rain = 0
KPG1 170719Z 02012KT 16/02 A3011 RMK A01 T01640020  RH  038%=      5-min Rain = 0
KPG1 170720Z 02011KT 16/02 A3011 RMK A01 T01640019  RH  038%=      5-min Rain = 0
KPG1 170721Z 02012KT 17/02 A3011 RMK A01 T01650019  RH  037%=      5-min Rain = 0
KPG1 170722Z 01011KT 17/02 A3011 RMK A01 T01650019  RH  037%=      5-min Rain = 0
KPG1 170723Z 01012KT 16/02 A3011 RMK A01 T01640020  RH  038%=      5-min Rain = 0
KPG1 170724Z 01013KT 16/02 A3011 RMK A01 T01640020  RH  038%=      5-min Rain = 0
KPG1 170725Z 00012KT 16/02 A3011 RMK A01 T01640020  RH  038%=      5-min Rain = 0
KPG1 170726Z 00014KT 16/02 A3011 RMK A01 T01640020  RH  038%=      5-min Rain = 0
KPG1 170727Z 00013KT 16/02 A3011 RMK A01 T01640020  RH  038%=      5-min Rain = 0
KPG1 170728Z 00014KT 16/02 A3011 RMK A01 T01640020  RH  038%=      5-min Rain = 0
KPG1 170729Z 01013KT 16/02 A3011 RMK A01 T01630020  RH  038%=      5-min Rain = 0
KPG1 170730Z 00013KT 16/02 A3011 RMK A01 T01640019  RH  038%=      5-min Rain = 0
KPG1 170731Z 01014KT 16/02 A3011 RMK A01 T01640020  RH  038%=      5-min Rain = 0
KPG1 170732Z 01013KT 16/02 A3011 RMK A01 T01630019  RH  038%=      5-min Rain = 0
KPG1 170733Z 01013KT 16/02 A3011 RMK A01 T01640019  RH  037%=      5-min Rain = 0
KPG1 170734Z 01013KT 16/02 A3011 RMK A01 T01640019  RH  037%=      5-min Rain = 0
KPG1 170735Z 02014KT 16/02 A3011 RMK A01 T01640018  RH  037%=      5-min Rain = 0
KPG1 170736Z 01013KT 16/02 A3011 RMK A01 T01640018  RH  037%=      5-min Rain = 0
KPG1 170737Z 01012KT 16/02 A3011 RMK A01 T01640018  RH  037%=      5-min Rain = 0
KPG1 170738Z 01013KT 16/02 A3011 RMK A01 T01640018  RH  037%=      5-min Rain = 0
KPG1 170739Z 01013KT 16/02 A3011 RMK A01 T01640018  RH  037%=      5-min Rain = 0
KPG1 170740Z 02013KT 17/02 A3011 RMK A01 T01650018  RH  037%=      5-min Rain = 0
KPG1 170741Z 01013KT 17/02 A3011 RMK A01 T01650017  RH  037%=      5-min Rain = 0
KPG1 170742Z 01012KT 17/02 A3011 RMK A01 T01650018  RH  037%=      5-min Rain = 0
KPG1 170743Z 01012KT 16/02 A3011 RMK A01 T01640018  RH  037%=      5-min Rain = 0
KPG1 170744Z 01012KT 16/02 A3011 RMK A01 T01640018  RH  037%=      5-min Rain = 0
KPG1 170745Z 01012KT 16/02 A3011 RMK A01 T01640018  RH  037%=      5-min Rain = 0
KPG1 170746Z 01011KT 16/02 A3011 RMK A01 T01640018  RH  037%=      5-min Rain = 0
KPG1 170747Z 01010KT 16/02 A3011 RMK A01 T01640018  RH  037%=      5-min Rain = 0
KPG1 170748Z 01010KT 16/02 A3011 RMK A01 T01630018  RH  037%=      5-min Rain = 0
KPG1 170749Z 00010KT 16/02 A3011 RMK A01 T01630018  RH  038%=      5-min Rain = 0
KPG1 170750Z 01012KT 16/02 A3011 RMK A01 T01630018  RH  037%=      5-min Rain = 0
KPG1 170751Z 36011KT 16/02 A3011 RMK A01 T01630017  RH  037%=      5-min Rain = 0
KPG1 170752Z 01010KT 16/02 A3011 RMK A01 T01630017  RH  037%=      5-min Rain = 0
KPG1 170753Z 01012KT 16/02 A3011 RMK A01 T01630017  RH  037%=      5-min Rain = 0
KPG1 170754Z 01012KT 16/02 A3011 RMK A01 T01630017  RH  037%=      5-min Rain = 0
KPG1 170755Z 01013KT 16/02 A3011 RMK A01 T01630018  RH  037%=      5-min Rain = 0
KPG1 170756Z 00013KT 16/02 A3011 RMK A01 T01630018  RH  037%=      5-min Rain = 0
KPG1 170757Z 00013KT 16/02 A3011 RMK A01 T01630018  RH  037%=      5-min Rain = 0
KPG1 170758Z 00013KT 16/02 A3011 RMK A01 T01630018  RH  037%=      5-min Rain = 0
KPG1 170759Z 00012KT 16/02 A3011 RMK A01 T01630018  RH  038%=      5-min Rain = 0
KPG1 170800Z 01013KT 16/02 A3011 RMK A01 T01630018  RH  038%=      5-min Rain = 0
KPG1 170801Z 01013KT 16/02 A3011 RMK A01 T01630018  RH  038%=      5-min Rain = 0
KPG1 170802Z 01013KT 16/02 A3011 RMK A01 T01630018  RH  038%=      5-min Rain = 0
KPG1 170803Z 00012KT 16/02 A3011 RMK A01 T01620018  RH  038%=      5-min Rain = 0
KPG1 170804Z 00013KT 16/02 A301 RMK A01 T01620019  RH  038%=      5-min Rain = 0
KPG1 170805Z 00014KT 16/02 A3011 RMK A01 T01620018  RH  038%=      5-min Rain = 0
KPG1 170806Z 00013KT 16/02 A3011 RMK A01 T01620018  RH  038%=      5-min Rain = 0
KPG1 170807Z 36013KT 16/02 A301 RMK A01 T01610018  RH  038%=      5-min Rain = 0
KPG1 170808Z 36012KT 16/02 A301 RMK A01 T01620018  RH  038%=      5-min Rain = 0
KPG1 170809Z 36012KT 16/02 A301 RMK A01 T01630018  RH  038%=      5-min Rain = 0
KPG1 170810Z 36010KT 16/02 A3011 RMK A01 T01620018  RH  038%=      5-min Rain = 0
KPG1 170811Z 36010KT 16/02 A3011 RMK A01 T01620018  RH  038%=      5-min Rain = 0
KPG1 170812Z 36010KT 16/02 A3011 RMK A01 T01620017  RH  038%=      5-min Rain = 0
KPG1 170813Z 35009KT 16/02 A3011 RMK A01 T01620018  RH  038%=      5-min Rain = 0
KPG1 170814Z 35010KT 16/02 A3011 RMK A01 T01620017  RH  038%=      5-min Rain = 0
KPG1 170815Z 35010KT 16/02 A3011 RMK A01 T01620017  RH  038%=      5-min Rain = 0
KPG1 170816Z 35012KT 16/02 A3011 RMK A01 T01620017  RH  038%=      5-min Rain = 0
KPG1 170817Z 35012KT 16/02 A3011 RMK A01 T01620017  RH  038%=      5-min Rain = 0
KPG1 170818Z 35012KT 16/02 A3011 RMK A01 T01620017  RH  038%=      5-min Rain = 0
KPG1 170819Z 35012KT 16/02 A3011 RMK A01 T01610017  RH  038%=      5-min Rain = 0
KPG1 170820Z 35012KT 16/02 A301 RMK A01 T01620017  RH  038%=      5-min Rain = 0
KPG1 170821Z 35012KT 16/02 A301 RMK A01 T01620016  RH  037%=      5-min Rain = 0
KPG1 170822Z 35012KT 16/02 A301 RMK A01 T01620017  RH  038%=      5-min Rain = 0
KPG1 170823Z 35012KT 16/02 A301 RMK A01 T01620018  RH  038%=      5-min Rain = 0
KPG1 170824Z 35011KT 16/02 A301 RMK A01 T01620018  RH  038%=      5-min Rain = 0
KPG1 170825Z 35011KT 16/02 A301 RMK A01 T01620018  RH  038%=      5-min Rain = 0
KPG1 170826Z 35010KT 16/02 A301 RMK A01 T01620018  RH  038%=      5-min Rain = 0
KPG1 170827Z 35011KT 16/02 A301 RMK A01 T01610018  RH  038%=      5-min Rain = 0
KPG1 170828Z 35011KT 16/02 A301 RMK A01 T01610018  RH  038%=      5-min Rain = 0
KPG1 170829Z 35011KT 16/02 A301 RMK A01 T01610018  RH  038%=      5-min Rain = 0
KPG1 170830Z 35010KT 16/02 A301 RMK A01 T01610018  RH  038%=      5-min Rain = 0
KPG1 170831Z 35010KT 16/02 A301 RMK A01 T01610017  RH  038%=      5-min Rain = 0
KPG1 170832Z 36011KT 16/02 A301 RMK A01 T01610017  RH  038%=      5-min Rain = 0
KPG1 170833Z 36010KT 16/02 A301 RMK A01 T01610017  RH  038%=      5-min Rain = 0
KPG1 170834Z 35011KT 16/02 A301 RMK A01 T01610017  RH  038%=      5-min Rain = 0
KPG1 170835Z 36010KT 16/02 A301 RMK A01 T01610017  RH  038%=      5-min Rain = 0
KPG1 170836Z 36010KT 16/02 A301 RMK A01 T01610017  RH  038%=      5-min Rain = 0
KPG1 170837Z 35011KT 16/02 A301 RMK A01 T01610017  RH  038%=      5-min Rain = 0
KPG1 170838Z 35011KT 16/02 A301 RMK A01 T01610017  RH  038%=      5-min Rain = 0
KPG1 170839Z 34011KT 16/02 A301 RMK A01 T01610017  RH  038%=      5-min Rain = 0
KPG1 170840Z 35012KT 16/02 A301 RMK A01 T01610017  RH  038%=      5-min Rain = 0
KPG1 170841Z 35011KT 16/02 A301 RMK A01 T01610017  RH  038%=      5-min Rain = 0
KPG1 170842Z 34010KT 16/02 A301 RMK A01 T01610017  RH  038%=      5-min Rain = 0
KPG1 170843Z 35012KT 16/02 A301 RMK A01 T01600017  RH  038%=      5-min Rain = 0
KPG1 170844Z 35011KT 16/02 A301 RMK A01 T01600017  RH  038%=      5-min Rain = 0
KPG1 170845Z 35011KT 16/02 A301 RMK A01 T01610018  RH  038%=      5-min Rain = 0
KPG1 170846Z 35012KT 16/02 A301 RMK A01 T01600017  RH  038%=      5-min Rain = 0
KPG1 170847Z 35011KT 16/02 A301 RMK A01 T01610018  RH  038%=      5-min Rain = 0
KPG1 170848Z 35011KT 16/02 A3009 RMK A01 T01610018  RH  038%=      5-min Rain = 0
KPG1 170849Z 35011KT 16/02 A3009 RMK A01 T01610018  RH  038%=      5-min Rain = 0
KPG1 170850Z 35011KT 16/02 A3009 RMK A01 T01610018  RH  038%=      5-min Rain = 0
KPG1 170851Z 35011KT 16/02 A3009 RMK A01 T01610018  RH  038%=      5-min Rain = 0
KPG1 170852Z 35011KT 16/02 A3009 RMK A01 T01600018  RH  038%=      5-min Rain = 0
KPG1 170853Z 35011KT 16/02 A3009 RMK A01 T01600018  RH  038%=      5-min Rain = 0
KPG1 170854Z 35011KT 16/02 A3009 RMK A01 T01600018  RH  038%=      5-min Rain = 0
KPG1 170855Z 35010KT 16/02 A3009 RMK A01 T01600018  RH  038%=      5-min Rain = 0
KPG1 170856Z 35010KT 16/02 A3009 RMK A01 T01610018  RH  038%=      5-min Rain = 0
KPG1 170857Z 35011KT 16/02 A3009 RMK A01 T01610018  RH  038%=      5-min Rain = 0
KPG1 170858Z 35010KT 16/02 A3009 RMK A01 T01610018  RH  038%=      5-min Rain = 0
KPG1 170859Z 36009KT 16/02 A3009 RMK A01 T01610018  RH  038%=      5-min Rain = 0
KPG1 170900Z 35010KT 16/02 A3009 RMK A01 T01600017  RH  038%=      5-min Rain = 0
KPG1 170901Z 35010KT 16/02 A3009 RMK A01 T01600017  RH  038%=      5-min Rain = 0
KPG1 170902Z 35010KT 16/02 A3009 RMK A01 T01600017  RH  038%=      5-min Rain = 0
KPG1 170903Z 35010KT 16/02 A3009 RMK A01 T01600017  RH  038%=      5-min Rain = 0
KPG1 170904Z 35010KT 16/02 A3009 RMK A01 T01600017  RH  038%=      5-min Rain = 0
KPG1 170905Z 36010KT 16/02 A3009 RMK A01 T01600017  RH  038%=      5-min Rain = 0
KPG1 170906Z 00009KT 16/02 A3009 RMK A01 T01600017  RH  038%=      5-min Rain = 0
KPG1 170907Z 35010KT 16/02 A3009 RMK A01 T01600017  RH  038%=      5-min Rain = 0
KPG1 170908Z 36009KT 16/02 A3009 RMK A01 T01600017  RH  038%=      5-min Rain = 0
KPG1 170909Z 35009KT 16/02 A3009 RMK A01 T01600017  RH  038%=      5-min Rain = 0
KPG1 170910Z 36009KT 16/02 A3009 RMK A01 T01590017  RH  038%=      5-min Rain = 0
KPG1 170911Z 00009KT 16/02 A3009 RMK A01 T01580017  RH  038%=      5-min Rain = 0
KPG1 170912Z 36009KT 16/02 A3009 RMK A01 T01590017  RH  038%=      5-min Rain = 0
KPG1 170913Z 36009KT 16/02 A3009 RMK A01 T01580017  RH  038%=      5-min Rain = 0
KPG1 170914Z 00009KT 16/02 A3009 RMK A01 T01590017  RH  038%=      5-min Rain = 0
KPG1 170915Z 35009KT 16/02 A3009 RMK A01 T01590017  RH  038%=      5-min Rain = 0
KPG1 170916Z 00009KT 16/02 A3009 RMK A01 T01590017  RH  038%=      5-min Rain = 0
KPG1 170917Z 00008KT 16/02 A3009 RMK A01 T01590017  RH  038%=      5-min Rain = 0
KPG1 170918Z 01008KT 16/02 A3009 RMK A01 T01590017  RH  038%=      5-min Rain = 0
KPG1 170919Z 01007KT 16/02 A3009 RMK A01 T01580017  RH  038%=      5-min Rain = 0
KPG1 170920Z 00008KT 16/02 A3009 RMK A01 T01580017  RH  038%=      5-min Rain = 0
KPG1 170921Z 00008KT 16/02 A3009 RMK A01 T01590017  RH  038%=      5-min Rain = 0
KPG1 170922Z 00009KT 16/02 A3009 RMK A01 T01580017  RH  038%=      5-min Rain = 0
KPG1 170923Z 01008KT 16/02 A3009 RMK A01 T01580017  RH  039%=      5-min Rain = 0
KPG1 170924Z 01008KT 16/02 A3009 RMK A01 T01580018  RH  039%=      5-min Rain = 0
KPG1 170925Z 01008KT 16/02 A3009 RMK A01 T01580017  RH  039%=      5-min Rain = 0
KPG1 170926Z 01008KT 16/02 A3009 RMK A01 T01570017  RH  039%=      5-min Rain = 0
KPG1 170927Z 01009KT 16/02 A3009 RMK A01 T01570018  RH  039%=      5-min Rain = 0
KPG1 170928Z 01009KT 16/02 A3009 RMK A01 T01570018  RH  039%=      5-min Rain = 0
KPG1 170929Z 01008KT 16/02 A3009 RMK A01 T01580018  RH  039%=      5-min Rain = 0
KPG1 170930Z 01010KT 16/02 A3009 RMK A01 T01580018  RH  039%=      5-min Rain = 0
KPG1 170931Z 01008KT 16/02 A3009 RMK A01 T01580018  RH  039%=      5-min Rain = 0
KPG1 170932Z 01008KT 16/02 A3009 RMK A01 T01580018  RH  039%=      5-min Rain = 0
KPG1 170933Z 01009KT 16/02 A3008 RMK A01 T01580019  RH  039%=      5-min Rain = 0
KPG1 170934Z 01010KT 16/02 A3008 RMK A01 T01570018  RH  039%=      5-min Rain = 0
KPG1 170935Z 01009KT 16/02 A3008 RMK A01 T01570018  RH  039%=      5-min Rain = 0
KPG1 170936Z 01010KT 16/02 A3008 RMK A01 T01570019  RH  039%=      5-min Rain = 0
KPG1 170937Z 00010KT 16/02 A3008 RMK A01 T01570019  RH  039%=      5-min Rain = 0
KPG1 170938Z 01011KT 16/02 A3008 RMK A01 T01570019  RH  039%=      5-min Rain = 0
KPG1 170939Z 01010KT 16/02 A3008 RMK A01 T01580019  RH  039%=      5-min Rain = 0
KPG1 170940Z 01010KT 16/02 A3008 RMK A01 T01580019  RH  039%=      5-min Rain = 0
KPG1 170941Z 01011KT 16/02 A3008 RMK A01 T01580020  RH  039%=      5-min Rain = 0
KPG1 170942Z 01011KT 16/02 A3008 RMK A01 T01580019  RH  039%=      5-min Rain = 0
KPG1 170943Z 01010KT 16/02 A3008 RMK A01 T01580020  RH  039%=      5-min Rain = 0
KPG1 170944Z 01011KT 16/02 A3008 RMK A01 T01580020  RH  039%=      5-min Rain = 0
KPG1 170945Z 01011KT 16/02 A3008 RMK A01 T01580020  RH  039%=      5-min Rain = 0
KPG1 170946Z 01011KT 16/02 A3008 RMK A01 T01580020  RH  039%=      5-min Rain = 0
KPG1 170947Z 01011KT 16/02 A3008 RMK A01 T01580020  RH  039%=      5-min Rain = 0
KPG1 170948Z 01010KT 16/02 A3008 RMK A01 T01580020  RH  039%=      5-min Rain = 0
KPG1 170949Z 00010KT 16/02 A3008 RMK A01 T01580020  RH  039%=      5-min Rain = 0
KPG1 170950Z 01010KT 16/02 A3008 RMK A01 T01580020  RH  039%=      5-min Rain = 0
KPG1 170951Z 00010KT 16/02 A3008 RMK A01 T01580020  RH  039%=      5-min Rain = 0
KPG1 170952Z 01009KT 16/02 A3008 RMK A01 T01580020  RH  039%=      5-min Rain = 0
KPG1 170953Z 00009KT 16/02 A3008 RMK A01 T01570020  RH  039%=      5-min Rain = 0
KPG1 170954Z 00010KT 16/02 A3008 RMK A01 T01570020  RH  039%=      5-min Rain = 0
KPG1 170955Z 01011KT 16/02 A3008 RMK A01 T01570020  RH  039%=      5-min Rain = 0
KPG1 170956Z 01011KT 16/02 A3008 RMK A01 T01570020  RH  039%=      5-min Rain = 0
KPG1 170957Z 00011KT 16/02 A3008 RMK A01 T01580020  RH  039%=      5-min Rain = 0
KPG1 170958Z 00011KT 16/02 A3008 RMK A01 T01580020  RH  039%=      5-min Rain = 0
KPG1 170959Z 01011KT 16/02 A3008 RMK A01 T01590020  RH  039%=      5-min Rain = 0
KPG1 171000Z 00010KT 16/02 A3008 RMK A01 T01590020  RH  039%=      5-min Rain = 0
KPG1 171001Z 01009KT 16/02 A3008 RMK A01 T01590020  RH  039%=      5-min Rain = 0
KPG1 171002Z 01009KT 16/02 A3008 RMK A01 T01590020  RH  039%=      5-min Rain = 0
KPG1 171003Z 01010KT 16/02 A3008 RMK A01 T01580020  RH  039%=      5-min Rain = 0
KPG1 171004Z 01009KT 16/02 A3008 RMK A01 T01580020  RH  039%=      5-min Rain = 0
KPG1 171005Z 01009KT 16/02 A3008 RMK A01 T01570020  RH  039%=      5-min Rain = 0
KPG1 171006Z 01008KT 16/02 A3008 RMK A01 T01570020  RH  039%=      5-min Rain = 0
KPG1 171007Z 01009KT 16/02 A3008 RMK A01 T01570020  RH  039%=      5-min Rain = 0
KPG1 171008Z 01009KT 16/02 A3008 RMK A01 T01580020  RH  039%=      5-min Rain = 0
KPG1 171009Z 01010KT 16/02 A3008 RMK A01 T01580020  RH  040%=      5-min Rain = 0
KPG1 171010Z 01010KT 16/02 A3008 RMK A01 T01580020  RH  039%=      5-min Rain = 0
KPG1 171011Z 01011KT 16/02 A3008 RMK A01 T01580020  RH  040%=      5-min Rain = 0
KPG1 171012Z 01010KT 16/02 A3008 RMK A01 T01570020  RH  039%=      5-min Rain = 0
KPG1 171013Z 01010KT 16/02 A3008 RMK A01 T01580020  RH  039%=      5-min Rain = 0
KPG1 171014Z 01009KT 16/02 A3008 RMK A01 T01570020  RH  039%=      5-min Rain = 0
KPG1 171015Z 00009KT 16/02 A3008 RMK A01 T01570020  RH  040%=      5-min Rain = 0
KPG1 171016Z 01010KT 16/02 A3008 RMK A01 T01570020  RH  040%=      5-min Rain = 0
KPG1 171017Z 00009KT 16/02 A3008 RMK A01 T01570020  RH  040%=      5-min Rain = 0
KPG1 171018Z 00009KT 16/02 A3008 RMK A01 T01570020  RH  040%=      5-min Rain = 0
KPG1 171019Z 36008KT 16/02 A3008 RMK A01 T01570020  RH  040%=      5-min Rain = 0
KPG1 171020Z 01008KT 16/02 A3008 RMK A01 T01570020  RH  040%=      5-min Rain = 0
KPG1 171021Z 00009KT 16/02 A3008 RMK A01 T01570020  RH  040%=      5-min Rain = 0
KPG1 171022Z 01009KT 16/02 A3008 RMK A01 T01560020  RH  040%=      5-min Rain = 0
KPG1 171023Z 01009KT 16/02 A3008 RMK A01 T01560020  RH  040%=      5-min Rain = 0
KPG1 171024Z 00008KT 16/02 A3008 RMK A01 T01560021  RH  040%=      5-min Rain = 0
KPG1 171025Z 00008KT 16/02 A3008 RMK A01 T01560021  RH  040%=      5-min Rain = 0
KPG1 171026Z 01009KT 16/02 A3008 RMK A01 T01560021  RH  040%=      5-min Rain = 0
KPG1 171027Z 01010KT 16/02 A3008 RMK A01 T01560021  RH  040%=      5-min Rain = 0
KPG1 171028Z 00010KT 16/02 A3008 RMK A01 T01560021  RH  040%=      5-min Rain = 0
KPG1 171029Z 01010KT 16/02 A3008 RMK A01 T01570021  RH  040%=      5-min Rain = 0
KPG1 171030Z 01009KT 16/02 A3008 RMK A01 T01570020  RH  040%=      5-min Rain = 0
KPG1 171031Z 01009KT 16/02 A3008 RMK A01 T01570020  RH  040%=      5-min Rain = 0
KPG1 171032Z 01008KT 16/02 A3008 RMK A01 T01570021  RH  040%=      5-min Rain = 0
KPG1 171033Z 01009KT 16/02 A3008 RMK A01 T01570021  RH  040%=      5-min Rain = 0
KPG1 171034Z 01009KT 16/02 A3008 RMK A01 T01560020  RH  040%=      5-min Rain = 0
KPG1 171035Z 01009KT 16/02 A3008 RMK A01 T01560020  RH  040%=      5-min Rain = 0
KPG1 171036Z 01008KT 16/02 A3008 RMK A01 T01570020  RH  040%=      5-min Rain = 0
KPG1 171037Z 01008KT 16/02 A3008 RMK A01 T01570020  RH  040%=      5-min Rain = 0
KPG1 171038Z 01008KT 16/02 A3008 RMK A01 T01560020  RH  040%=      5-min Rain = 0
KPG1 171039Z 01008KT 16/02 A3008 RMK A01 T01560020  RH  040%=      5-min Rain = 0
KPG1 171040Z 00009KT 16/02 A3008 RMK A01 T01560020  RH  040%=      5-min Rain = 0
KPG1 171041Z 01008KT 16/02 A3008 RMK A01 T01560020  RH  040%=      5-min Rain = 0
KPG1 171042Z 01009KT 16/02 A3008 RMK A01 T01560020  RH  040%=      5-min Rain = 0
KPG1 171043Z 01008KT 16/02 A3008 RMK A01 T01560020  RH  040%=      5-min Rain = 0
KPG1 171044Z 00008KT 16/02 A3008 RMK A01 T01560020  RH  040%=      5-min Rain = 0
KPG1 171045Z 01008KT 16/02 A3008 RMK A01 T01560020  RH  040%=      5-min Rain = 0
KPG1 171046Z 00009KT 16/02 A3008 RMK A01 T01560020  RH  040%=      5-min Rain = 0
KPG1 171047Z 36009KT 16/02 A3008 RMK A01 T01560020  RH  040%=      5-min Rain = 0
KPG1 171048Z 00008KT 16/02 A3008 RMK A01 T01550020  RH  040%=      5-min Rain = 0
KPG1 171049Z 36008KT 16/02 A3008 RMK A01 T01550020  RH  040%=      5-min Rain = 0
KPG1 171050Z 00009KT 16/02 A3008 RMK A01 T01550020  RH  040%=      5-min Rain = 0
KPG1 171051Z 36008KT 15/02 A3008 RMK A01 T01540020  RH  040%=      5-min Rain = 0
KPG1 171052Z 00007KT 15/02 A3008 RMK A01 T01540020  RH  040%=      5-min Rain = 0
KPG1 171053Z 35008KT 15/02 A3008 RMK A01 T01540020  RH  040%=      5-min Rain = 0
KPG1 171054Z 36008KT 15/02 A3008 RMK A01 T01540020  RH  040%=      5-min Rain = 0
KPG1 171055Z 00008KT 15/02 A3008 RMK A01 T01540021  RH  040%=      5-min Rain = 0
KPG1 171056Z 36008KT 15/02 A3008 RMK A01 T01540020  RH  040%=      5-min Rain = 0
KPG1 171057Z 00008KT 15/02 A3008 RMK A01 T01540020  RH  040%=      5-min Rain = 0
KPG1 171058Z 36008KT 15/02 A3008 RMK A01 T01540020  RH  040%=      5-min Rain = 0
KPG1 171059Z 36008KT 15/02 A3008 RMK A01 T01540020  RH  040%=      5-min Rain = 0
KPG1 171100Z 00009KT 15/02 A3008 RMK A01 T01540020  RH  040%=      5-min Rain = 0
KPG1 171101Z 00008KT 15/02 A3008 RMK A01 T01540020  RH  040%=      5-min Rain = 0
KPG1 171102Z 00008KT 16/02 A3008 RMK A01 T01550020  RH  040%=      5-min Rain = 0
KPG1 171103Z 36008KT 16/02 A3008 RMK A01 T01550020  RH  040%=      5-min Rain = 0
KPG1 171104Z 00008KT 16/02 A3008 RMK A01 T01550021  RH  040%=      5-min Rain = 0
KPG1 171105Z 00008KT 16/02 A3008 RMK A01 T01550020  RH  040%=      5-min Rain = 0
KPG1 171106Z 01007KT 16/02 A3008 RMK A01 T01550020  RH  040%=      5-min Rain = 0
KPG1 171107Z 36008KT 15/02 A3008 RMK A01 T01540020  RH  040%=      5-min Rain = 0
KPG1 171108Z 00007KT 15/02 A3008 RMK A01 T01540020  RH  040%=      5-min Rain = 0
KPG1 171109Z 00007KT 15/02 A3008 RMK A01 T01530020  RH  041%=      5-min Rain = 0
KPG1 171110Z 00007KT 15/02 A3008 RMK A01 T01530020  RH  041%=      5-min Rain = 0
KPG1 171111Z 00007KT 15/02 A3008 RMK A01 T01530020  RH  041%=      5-min Rain = 0
KPG1 171112Z 00007KT 15/02 A3008 RMK A01 T01530020  RH  041%=      5-min Rain = 0
KPG1 171113Z 00007KT 15/02 A3008 RMK A01 T01530020  RH  041%=      5-min Rain = 0
KPG1 171114Z 01007KT 15/02 A3008 RMK A01 T01530020  RH  041%=      5-min Rain = 0
KPG1 171115Z 00007KT 15/02 A3008 RMK A01 T01530020  RH  041%=      5-min Rain = 0
KPG1 171116Z 00007KT 15/02 A3008 RMK A01 T01540020  RH  041%=      5-min Rain = 0
KPG1 171117Z 36007KT 15/02 A3008 RMK A01 T01530020  RH  040%=      5-min Rain = 0
KPG1 171118Z 36007KT 15/02 A3008 RMK A01 T01530020  RH  041%=      5-min Rain = 0
KPG1 171119Z 36008KT 15/02 A3008 RMK A01 T01530020  RH  041%=      5-min Rain = 0
KPG1 171120Z 00007KT 15/02 A3008 RMK A01 T01530020  RH  041%=      5-min Rain = 0
KPG1 171121Z 00007KT 15/02 A3008 RMK A01 T01530020  RH  041%=      5-min Rain = 0
KPG1 171122Z 36008KT 15/02 A3008 RMK A01 T01530020  RH  041%=      5-min Rain = 0
KPG1 171123Z 01008KT 15/02 A3008 RMK A01 T01530020  RH  041%=      5-min Rain = 0
KPG1 171124Z 00007KT 15/02 A3008 RMK A01 T01530020  RH  041%=      5-min Rain = 0
KPG1 171125Z 00008KT 15/02 A3008 RMK A01 T01530020  RH  041%=      5-min Rain = 0
KPG1 171126Z 01007KT 15/02 A3008 RMK A01 T01530020  RH  041%=      5-min Rain = 0
KPG1 171127Z 01007KT 15/02 A3008 RMK A01 T01530020  RH  041%=      5-min Rain = 0
KPG1 171128Z 00006KT 15/02 A3008 RMK A01 T01530020  RH  040%=      5-min Rain = 0
KPG1 171129Z 00006KT 15/02 A3008 RMK A01 T01530020  RH  040%=      5-min Rain = 0
KPG1 171130Z 00007KT 15/02 A3008 RMK A01 T01530020  RH  040%=      5-min Rain = 0
KPG1 171131Z 00007KT 15/02 A3008 RMK A01 T01540020  RH  040%=      5-min Rain = 0
KPG1 171132Z 01007KT 15/02 A3008 RMK A01 T01530020  RH  040%=      5-min Rain = 0
KPG1 171133Z 00006KT 15/02 A3008 RMK A01 T01540020  RH  040%=      5-min Rain = 0
KPG1 171134Z 36007KT 15/02 A3008 RMK A01 T01540020  RH  040%=      5-min Rain = 0
KPG1 171135Z 36006KT 15/02 A3008 RMK A01 T01530019  RH  040%=      5-min Rain = 0
KPG1 171136Z 00006KT 15/02 A3008 RMK A01 T01530019  RH  040%=      5-min Rain = 0
KPG1 171137Z 36006KT 15/02 A3008 RMK A01 T01530020  RH  041%=      5-min Rain = 0
KPG1 171138Z 36006KT 15/02 A3008 RMK A01 T01530020  RH  041%=      5-min Rain = 0
KPG1 171139Z 36005KT 15/02 A3008 RMK A01 T01530019  RH  041%=      5-min Rain = 0
KPG1 171140Z 36005KT 15/02 A3008 RMK A01 T01530020  RH  041%=      5-min Rain = 0
KPG1 171141Z 36005KT 15/02 A3008 RMK A01 T01520020  RH  041%=      5-min Rain = 0
KPG1 171142Z 00005KT 15/02 A3008 RMK A01 T01520019  RH  041%=      5-min Rain = 0
KPG1 171143Z 01004KT 15/02 A3008 RMK A01 T01520019  RH  041%=      5-min Rain = 0
KPG1 171144Z 01004KT 15/02 A3008 RMK A01 T01520019  RH  041%=      5-min Rain = 0
KPG1 171145Z 01003KT 15/02 A3008 RMK A01 T01510018  RH  041%=      5-min Rain = 0
KPG1 171146Z 02003KT 15/02 A3008 RMK A01 T01480017  RH  041%=      5-min Rain = 0
KPG1 171147Z 03002KT 15/02 A3008 RMK A01 T01470017  RH  041%=      5-min Rain = 0
KPG1 171148Z 05002KT 15/02 A3008 RMK A01 T01450016  RH  041%=      5-min Rain = 0
KPG1 171149Z 03001KT 14/02 A3008 RMK A01 T01440016  RH  042%=      5-min Rain = 0
KPG1 171150Z 03002KT 14/02 A3008 RMK A01 T01420016  RH  042%=      5-min Rain = 0
KPG1 171151Z 02001KT 14/02 A3008 RMK A01 T01410016  RH  043%=      5-min Rain = 0
KPG1 171152Z 03001KT 14/02 A3008 RMK A01 T01400016  RH  043%=      5-min Rain = 0
KPG1 171153Z 01003KT 14/02 A3008 RMK A01 T01390017  RH  043%=      5-min Rain = 0
KPG1 171154Z 01002KT 14/02 A3008 RMK A01 T01380018  RH  044%=      5-min Rain = 0
KPG1 171155Z 01004KT 14/02 A3008 RMK A01 T01380018  RH  044%=      5-min Rain = 0
KPG1 171156Z 01004KT 14/02 A3008 RMK A01 T01390018  RH  044%=      5-min Rain = 0
KPG1 171157Z 01004KT 14/02 A3008 RMK A01 T01420019  RH  043%=      5-min Rain = 0
KPG1 171158Z 01005KT 14/02 A3008 RMK A01 T01440019  RH  043%=      5-min Rain = 0
KPG1 171159Z 00005KT 15/02 A3008 RMK A01 T01460019  RH  042%=      5-min Rain = 0
KPG1 171200Z 00005KT 15/02 A3008 RMK A01 T01480019  RH  042%=      5-min Rain = 0
KPG1 171201Z 36006KT 15/02 A3008 RMK A01 T01490019  RH  041%=      5-min Rain = 0
KPG1 171202Z 00005KT 15/02 A3008 RMK A01 T01490019  RH  041%=      5-min Rain = 0
KPG1 171203Z 36005KT 15/02 A3008 RMK A01 T01500019  RH  041%=      5-min Rain = 0
KPG1 171204Z 00005KT 15/02 A3009 RMK A01 T01500019  RH  041%=      5-min Rain = 0
KPG1 171205Z 35006KT 15/02 A3009 RMK A01 T01500019  RH  041%=      5-min Rain = 0
KPG1 171206Z 35005KT 15/02 A3009 RMK A01 T01490018  RH  041%=      5-min Rain = 0
KPG1 171207Z 35005KT 15/02 A3009 RMK A01 T01500019  RH  041%=      5-min Rain = 0
KPG1 171208Z 35005KT 15/02 A3009 RMK A01 T01500019  RH  041%=      5-min Rain = 0
KPG1 171209Z 36006KT 15/02 A3009 RMK A01 T01500019  RH  041%=      5-min Rain = 0
KPG1 171210Z 36006KT 15/02 A3009 RMK A01 T01500018  RH  041%=      5-min Rain = 0
KPG1 171211Z 36006KT 15/02 A3008 RMK A01 T01500019  RH  041%=      5-min Rain = 0
KPG1 171212Z 00006KT 15/02 A3008 RMK A01 T01500019  RH  041%=      5-min Rain = 0
KPG1 171213Z 36006KT 15/02 A3008 RMK A01 T01500018  RH  041%=      5-min Rain = 0
KPG1 171214Z 36007KT 15/02 A3008 RMK A01 T01490018  RH  041%=      5-min Rain = 0
KPG1 171215Z 00006KT 15/02 A3008 RMK A01 T01500018  RH  041%=      5-min Rain = 0
KPG1 171216Z 00005KT 15/02 A3009 RMK A01 T01500018  RH  041%=      5-min Rain = 0
KPG1 171217Z 00006KT 15/02 A3009 RMK A01 T01500018  RH  041%=      5-min Rain = 0
KPG1 171218Z 35005KT 15/02 A3009 RMK A01 T01500018  RH  041%=      5-min Rain = 0
KPG1 171219Z 00005KT 15/02 A3009 RMK A01 T01500018  RH  041%=      5-min Rain = 0
KPG1 171220Z 00006KT 15/02 A3009 RMK A01 T01500018  RH  041%=      5-min Rain = 0
KPG1 171221Z 36006KT 15/02 A3009 RMK A01 T01500018  RH  041%=      5-min Rain = 0
KPG1 171222Z 36006KT 15/02 A3009 RMK A01 T01500018  RH  041%=      5-min Rain = 0
KPG1 171223Z 36006KT 15/02 A3009 RMK A01 T01500018  RH  041%=      5-min Rain = 0
KPG1 171224Z 36006KT 15/02 A3009 RMK A01 T01500018  RH  041%=      5-min Rain = 0
KPG1 171225Z 36007KT 15/02 A3009 RMK A01 T01500019  RH  041%=      5-min Rain = 0
KPG1 171226Z 35007KT 15/02 A3009 RMK A01 T01500018  RH  041%=      5-min Rain = 0
KPG1 171227Z 36007KT 15/02 A3009 RMK A01 T01490018  RH  041%=      5-min Rain = 0
KPG1 171228Z 36008KT 15/02 A3009 RMK A01 T01500018  RH  041%=      5-min Rain = 0
KPG1 171229Z 35008KT 15/02 A3009 RMK A01 T01500019  RH  041%=      5-min Rain = 0
KPG1 171230Z 36007KT 15/02 A3009 RMK A01 T01510019  RH  041%=      5-min Rain = 0
KPG1 171231Z 00007KT 15/02 A3009 RMK A01 T01510019  RH  041%=      5-min Rain = 0
KPG1 171232Z 00007KT 15/02 A3009 RMK A01 T01510019  RH  041%=      5-min Rain = 0
KPG1 171233Z 36007KT 15/02 A3009 RMK A01 T01510019  RH  041%=      5-min Rain = 0
KPG1 171234Z 36007KT 15/02 A3009 RMK A01 T01510019  RH  041%=      5-min Rain = 0
KPG1 171235Z 36006KT 15/02 A3009 RMK A01 T01510019  RH  041%=      5-min Rain = 0
KPG1 171236Z 36006KT 15/02 A3009 RMK A01 T01510019  RH  041%=      5-min Rain = 0
KPG1 171237Z 36005KT 15/02 A3009 RMK A01 T01500018  RH  041%=      5-min Rain = 0
KPG1 171238Z 01006KT 15/02 A3009 RMK A01 T01490018  RH  041%=      5-min Rain = 0
KPG1 171239Z 00006KT 15/02 A3009 RMK A01 T01490018  RH  041%=      5-min Rain = 0
KPG1 171240Z 36006KT 15/02 A3009 RMK A01 T01490018  RH  041%=      5-min Rain = 0
KPG1 171241Z 36007KT 15/02 A3009 RMK A01 T01490018  RH  041%=      5-min Rain = 0
KPG1 171242Z 00006KT 15/02 A3009 RMK A01 T01490018  RH  041%=      5-min Rain = 0
KPG1 171243Z 00006KT 15/02 A3009 RMK A01 T01490018  RH  041%=      5-min Rain = 0
KPG1 171244Z 00007KT 15/02 A3009 RMK A01 T01490018  RH  041%=      5-min Rain = 0
KPG1 171245Z 36006KT 15/02 A3009 RMK A01 T01490018  RH  041%=      5-min Rain = 0
KPG1 171246Z 00006KT 15/02 A3009 RMK A01 T01490018  RH  041%=      5-min Rain = 0
KPG1 171247Z 36007KT 15/02 A3009 RMK A01 T01490018  RH  041%=      5-min Rain = 0
KPG1 171248Z 36007KT 15/02 A3009 RMK A01 T01490018  RH  041%=      5-min Rain = 0
KPG1 171249Z 00007KT 15/02 A3009 RMK A01 T01490018  RH  041%=      5-min Rain = 0
KPG1 171250Z 00007KT 15/02 A3009 RMK A01 T01490018  RH  041%=      5-min Rain = 0
KPG1 171251Z 00007KT 15/02 A3009 RMK A01 T01500018  RH  041%=      5-min Rain = 0
KPG1 171252Z 00006KT 15/02 A3009 RMK A01 T01510018  RH  041%=      5-min Rain = 0
KPG1 171253Z 00006KT 15/02 A3009 RMK A01 T01510018  RH  041%=      5-min Rain = 0
KPG1 171254Z 36007KT 15/02 A3009 RMK A01 T01510018  RH  041%=      5-min Rain = 0
KPG1 171255Z 36008KT 15/02 A3009 RMK A01 T01500018  RH  041%=      5-min Rain = 0
KPG1 171256Z 01007KT 15/02 A3009 RMK A01 T01500018  RH  041%=      5-min Rain = 0
KPG1 171257Z 01007KT 15/02 A3009 RMK A01 T01500018  RH  041%=      5-min Rain = 0
KPG1 171258Z 00006KT 15/02 A3009 RMK A01 T01500018  RH  041%=      5-min Rain = 0
KPG1 171259Z 00007KT 15/02 A3008 RMK A01 T01510018  RH  041%=      5-min Rain = 0
KPG1 171300Z 01006KT 15/02 A3008 RMK A01 T01500018  RH  041%=      5-min Rain = 0
KPG1 171301Z 01007KT 15/02 A3008 RMK A01 T01500018  RH  041%=      5-min Rain = 0
KPG1 171302Z 01007KT 15/02 A3008 RMK A01 T01500018  RH  041%=      5-min Rain = 0
KPG1 171303Z 01006KT 15/02 A3008 RMK A01 T01510018  RH  041%=      5-min Rain = 0
KPG1 171304Z 01006KT 15/02 A3008 RMK A01 T01510018  RH  041%=      5-min Rain = 0
KPG1 171305Z 01006KT 15/02 A3008 RMK A01 T01500018  RH  041%=      5-min Rain = 0
KPG1 171306Z 01007KT 15/02 A3008 RMK A01 T01500018  RH  041%=      5-min Rain = 0
KPG1 171307Z 01006KT 15/02 A3008 RMK A01 T01500018  RH  041%=      5-min Rain = 0
KPG1 171308Z 01006KT 15/02 A3008 RMK A01 T01500018  RH  041%=      5-min Rain = 0
KPG1 171309Z 00006KT 15/02 A3008 RMK A01 T01510018  RH  041%=      5-min Rain = 0
KPG1 171310Z 00006KT 15/02 A3008 RMK A01 T01510018  RH  041%=      5-min Rain = 0
KPG1 171311Z 01005KT 15/02 A3008 RMK A01 T01500018  RH  041%=      5-min Rain = 0
KPG1 171312Z 01005KT 15/02 A3008 RMK A01 T01500017  RH  041%=      5-min Rain = 0
KPG1 171313Z 00006KT 15/02 A3008 RMK A01 T01490018  RH  041%=      5-min Rain = 0
KPG1 171314Z 01005KT 15/02 A3008 RMK A01 T01490017  RH  041%=      5-min Rain = 0
KPG1 171315Z 01006KT 15/02 A3008 RMK A01 T01490018  RH  041%=      5-min Rain = 0
KPG1 171316Z 00006KT 15/02 A3008 RMK A01 T01490018  RH  041%=      5-min Rain = 0
KPG1 171317Z 00006KT 15/02 A3008 RMK A01 T01500018  RH  041%=      5-min Rain = 0
KPG1 171318Z 01006KT 15/02 A3008 RMK A01 T01500018  RH  041%=      5-min Rain = 0
KPG1 171319Z 02005KT 15/02 A3008 RMK A01 T01500018  RH  041%=      5-min Rain = 0
KPG1 171320Z 02005KT 15/02 A3008 RMK A01 T01490018  RH  041%=      5-min Rain = 0
KPG1 171321Z 01005KT 15/02 A3008 RMK A01 T01480017  RH  041%=      5-min Rain = 0
KPG1 171322Z 01006KT 15/02 A3008 RMK A01 T01470018  RH  041%=      5-min Rain = 0
KPG1 171323Z 01006KT 15/02 A3008 RMK A01 T01480018  RH  041%=      5-min Rain = 0
KPG1 171324Z 01006KT 15/02 A3008 RMK A01 T01490018  RH  041%=      5-min Rain = 0
KPG1 171325Z 00006KT 15/02 A3008 RMK A01 T01490018  RH  041%=      5-min Rain = 0
KPG1 171326Z 01007KT 15/02 A3008 RMK A01 T01490018  RH  041%=      5-min Rain = 0
KPG1 171327Z 01007KT 15/02 A3008 RMK A01 T01500018  RH  041%=      5-min Rain = 0
KPG1 171328Z 01007KT 15/02 A3008 RMK A01 T01520018  RH  041%=      5-min Rain = 0
KPG1 171329Z 01007KT 15/02 A3008 RMK A01 T01520018  RH  040%=      5-min Rain = 0
KPG1 171330Z 01006KT 15/02 A3008 RMK A01 T01520018  RH  040%=      5-min Rain = 0
KPG1 171331Z 01006KT 15/02 A3008 RMK A01 T01530018  RH  040%=      5-min Rain = 0
KPG1 171332Z 00006KT 15/02 A3008 RMK A01 T01520018  RH  040%=      5-min Rain = 0
KPG1 171333Z 01007KT 15/02 A3008 RMK A01 T01520018  RH  040%=      5-min Rain = 0
KPG1 171334Z 02007KT 15/02 A3008 RMK A01 T01520018  RH  040%=      5-min Rain = 0
KPG1 171335Z 01006KT 15/02 A3008 RMK A01 T01520018  RH  040%=      5-min Rain = 0
KPG1 171336Z 02007KT 15/02 A3008 RMK A01 T01530019  RH  040%=      5-min Rain = 0
KPG1 171337Z 01006KT 15/02 A3008 RMK A01 T01540019  RH  040%=      5-min Rain = 0
KPG1 171338Z 02006KT 15/02 A3008 RMK A01 T01540018  RH  040%=      5-min Rain = 0
KPG1 171339Z 02006KT 15/02 A3008 RMK A01 T01540018  RH  040%=      5-min Rain = 0
KPG1 171340Z 02006KT 15/02 A3008 RMK A01 T01540019  RH  040%=      5-min Rain = 0
KPG1 171341Z 02005KT 15/02 A3008 RMK A01 T01540019  RH  040%=      5-min Rain = 0
KPG1 171342Z 02005KT 15/02 A3008 RMK A01 T01540018  RH  040%=      5-min Rain = 0
KPG1 171343Z 02006KT 15/02 A3008 RMK A01 T01540019  RH  040%=      5-min Rain = 0
KPG1 171344Z 02005KT 16/02 A3008 RMK A01 T01550019  RH  040%=      5-min Rain = 0
KPG1 171345Z 02005KT 15/02 A3008 RMK A01 T01540019  RH  040%=      5-min Rain = 0
KPG1 171346Z 02005KT 15/02 A3008 RMK A01 T01520019  RH  041%=      5-min Rain = 0
KPG1 171347Z 02005KT 15/02 A3008 RMK A01 T01520019  RH  041%=      5-min Rain = 0
KPG1 171348Z 02004KT 15/02 A3008 RMK A01 T01520019  RH  041%=      5-min Rain = 0
KPG1 171349Z 04003KT 15/02 A3009 RMK A01 T01520020  RH  041%=      5-min Rain = 0
KPG1 171350Z 04004KT 15/02 A3009 RMK A01 T01520020  RH  041%=      5-min Rain = 0
KPG1 171351Z 05003KT 15/02 A3009 RMK A01 T01530021  RH  041%=      5-min Rain = 0
KPG1 171352Z 08002KT 15/02 A3008 RMK A01 T01510020  RH  041%=      5-min Rain = 0
KPG1 171353Z 15002KT 15/02 A3008 RMK A01 T01460018  RH  042%=      5-min Rain = 0
KPG1 171354Z 16002KT 14/02 A3008 RMK A01 T01410018  RH  043%=      5-min Rain = 0
KPG1 171355Z 20002KT 14/02 A3009 RMK A01 T01390018  RH  044%=      5-min Rain = 0
KPG1 171356Z 20002KT 14/02 A3009 RMK A01 T01390018  RH  044%=      5-min Rain = 0
KPG1 171357Z 22002KT 14/02 A3009 RMK A01 T01380018  RH  044%=      5-min Rain = 0
KPG1 171358Z 23002KT 14/02 A3009 RMK A01 T01360018  RH  045%=      5-min Rain = 0
KPG1 171359Z 22002KT 14/02 A3009 RMK A01 T01350018  RH  045%=      5-min Rain = 0
KPG1 171400Z 22002KT 13/02 A3009 RMK A01 T01340019  RH  046%=      5-min Rain = 0
KPG1 171401Z 22001KT 13/02 A3009 RMK A01 T01340019  RH  046%=      5-min Rain = 0
KPG1 171402Z 22002KT 13/02 A3009 RMK A01 T01330019  RH  046%=      5-min Rain = 0
KPG1 171403Z 20002KT 13/02 A3009 RMK A01 T01340019  RH  046%=      5-min Rain = 0
KPG1 171404Z 21002KT 14/02 A3009 RMK A01 T01350019  RH  046%=      5-min Rain = 0
KPG1 171405Z 22002KT 14/02 A3009 RMK A01 T01350019  RH  046%=      5-min Rain = 0
KPG1 171406Z 21002KT 13/02 A3009 RMK A01 T01340020  RH  046%=      5-min Rain = 0
KPG1 171407Z 18002KT 13/02 A3009 RMK A01 T01340020  RH  046%=      5-min Rain = 0
KPG1 171408Z 12002KT 14/02 A3009 RMK A01 T01350020  RH  046%=      5-min Rain = 0
KPG1 171409Z 12002KT 14/02 A3009 RMK A01 T01370021  RH  045%=      5-min Rain = 0
KPG1 171410Z 13001KT 14/02 A3009 RMK A01 T01390021  RH  045%=      5-min Rain = 0
KPG1 171411Z 17002KT 14/02 A3009 RMK A01 T01410022  RH  044%=      5-min Rain = 0
KPG1 171412Z 16003KT 14/02 A3009 RMK A01 T01430022  RH  044%=      5-min Rain = 0
KPG1 171413Z 14003KT 15/02 A3009 RMK A01 T01450022  RH  043%=      5-min Rain = 0
KPG1 171414Z 16003KT 15/02 A3009 RMK A01 T01460022  RH  043%=      5-min Rain = 0
KPG1 171415Z 17003KT 15/02 A3009 RMK A01 T01470022  RH  043%=      5-min Rain = 0
KPG1 171416Z 18003KT 15/02 A3009 RMK A01 T01490022  RH  042%=      5-min Rain = 0
KPG1 171417Z 18003KT 15/02 A3009 RMK A01 T01480022  RH  043%=      5-min Rain = 0
KPG1 171418Z 18003KT 15/02 A3009 RMK A01 T01490023  RH  042%=      5-min Rain = 0
KPG1 171419Z 18003KT 15/02 A3009 RMK A01 T01500022  RH  042%=      5-min Rain = 0
KPG1 171420Z 18004KT 15/02 A3009 RMK A01 T01500022  RH  042%=      5-min Rain = 0
KPG1 171421Z 17004KT 15/02 A3009 RMK A01 T01500022  RH  042%=      5-min Rain = 0
KPG1 171422Z 17003KT 15/02 A3009 RMK A01 T01500023  RH  042%=      5-min Rain = 0
KPG1 171423Z 17004KT 15/02 A3009 RMK A01 T01520023  RH  042%=      5-min Rain = 0
KPG1 171424Z 17004KT 15/02 A3009 RMK A01 T01530022  RH  041%=      5-min Rain = 0
KPG1 171425Z 16003KT 15/02 A3009 RMK A01 T01530023  RH  041%=      5-min Rain = 0
KPG1 171426Z 16003KT 15/02 A3009 RMK A01 T01530022  RH  041%=      5-min Rain = 0
KPG1 171427Z 17003KT 15/02 A3009 RMK A01 T01530022  RH  041%=      5-min Rain = 0
KPG1 171428Z 18003KT 15/02 A3009 RMK A01 T01530023  RH  041%=      5-min Rain = 0
KPG1 171429Z 19003KT 16/02 A3009 RMK A01 T01550023  RH  041%=      5-min Rain = 0
KPG1 171430Z 20004KT 16/02 A3009 RMK A01 T01550023  RH  041%=      5-min Rain = 0
KPG1 171431Z 20003KT 16/02 A3009 RMK A01 T01550023  RH  041%=      5-min Rain = 0
KPG1 171432Z 18003KT 15/02 A3009 RMK A01 T01540023  RH  041%=      5-min Rain = 0
KPG1 171433Z 19003KT 15/02 A3009 RMK A01 T01540022  RH  041%=      5-min Rain = 0
KPG1 171434Z 20003KT 15/02 A3009 RMK A01 T01540022  RH  041%=      5-min Rain = 0
KPG1 171435Z 20002KT 15/02 A3009 RMK A01 T01540022  RH  041%=      5-min Rain = 0
KPG1 171436Z 19004KT 15/02 A3009 RMK A01 T01540022  RH  041%=      5-min Rain = 0
KPG1 171437Z 19004KT 16/02 A3009 RMK A01 T01550022  RH  041%=      5-min Rain = 0
KPG1 171438Z 18004KT 16/02 A3009 RMK A01 T01560023  RH  041%=      5-min Rain = 0
KPG1 171439Z 19003KT 16/02 A3009 RMK A01 T01570024  RH  041%=      5-min Rain = 0
KPG1 171440Z 19003KT 16/02 A3009 RMK A01 T01600024  RH  040%=      5-min Rain = 0
KPG1 171441Z 21003KT 16/02 A3009 RMK A01 T01600024  RH  040%=      5-min Rain = 0
KPG1 171442Z 20004KT 16/02 A3009 RMK A01 T01600024  RH  040%=      5-min Rain = 0
KPG1 171443Z 20004KT 16/02 A3009 RMK A01 T01600024  RH  040%=      5-min Rain = 0
KPG1 171444Z 21004KT 16/02 A3009 RMK A01 T01600024  RH  040%=      5-min Rain = 0
KPG1 171445Z 21004KT 16/02 A3009 RMK A01 T01590024  RH  040%=      5-min Rain = 0
KPG1 171446Z 18002KT 16/02 A3009 RMK A01 T01590023  RH  040%=      5-min Rain = 0
KPG1 171447Z 18002KT 16/02 A3009 RMK A01 T01600024  RH  040%=      5-min Rain = 0
KPG1 171448Z 18003KT 16/02 A3009 RMK A01 T01620024  RH  039%=      5-min Rain = 0
KPG1 171449Z 18003KT 16/02 A3009 RMK A01 T01640024  RH  039%=      5-min Rain = 0
KPG1 171450Z 17002KT 16/02 A3009 RMK A01 T01640024  RH  039%=      5-min Rain = 0
KPG1 171451Z 19003KT 16/02 A3009 RMK A01 T01640024  RH  039%=      5-min Rain = 0
KPG1 171452Z 19004KT 17/02 A3009 RMK A01 T01650024  RH  039%=      5-min Rain = 0
KPG1 171453Z 19003KT 17/02 A3009 RMK A01 T01650024  RH  039%=      5-min Rain = 0
KPG1 171454Z 20003KT 17/02 A3009 RMK A01 T01650024  RH  039%=      5-min Rain = 0
KPG1 171455Z 18004KT 17/03 A3009 RMK A01 T01650025  RH  039%=      5-min Rain = 0
KPG1 171456Z 17004KT 17/03 A3009 RMK A01 T01680025  RH  038%=      5-min Rain = 0
KPG1 171457Z 17003KT 17/02 A3009 RMK A01 T01680024  RH  038%=      5-min Rain = 0
KPG1 171458Z 17003KT 17/02 A3009 RMK A01 T01680024  RH  038%=      5-min Rain = 0
KPG1 171459Z 18003KT 17/02 A3009 RMK A01 T01680024  RH  038%=      5-min Rain = 0
KPG1 171500Z 17004KT 17/03 A3009 RMK A01 T01690025  RH  038%=      5-min Rain = 0
KPG1 171501Z 16004KT 17/03 A3009 RMK A01 T01700025  RH  038%=      5-min Rain = 0
KPG1 171502Z 18004KT 17/03 A3009 RMK A01 T01700025  RH  038%=      5-min Rain = 0
KPG1 171503Z 18003KT 17/03 A3009 RMK A01 T01720025  RH  037%=      5-min Rain = 0
KPG1 171504Z 17003KT 17/03 A3009 RMK A01 T01710025  RH  037%=      5-min Rain = 0
KPG1 171505Z 19003KT 17/03 A3009 RMK A01 T01710025  RH  038%=      5-min Rain = 0
KPG1 171506Z 20003KT 17/03 A3009 RMK A01 T01730025  RH  037%=      5-min Rain = 0
KPG1 171507Z 19003KT 17/03 A3009 RMK A01 T01730025  RH  037%=      5-min Rain = 0
KPG1 171508Z 17003KT 17/03 A3009 RMK A01 T01730025  RH  037%=      5-min Rain = 0
KPG1 171509Z 14002KT 17/03 A3009 RMK A01 T01740025  RH  037%=      5-min Rain = 0
KPG1 171510Z 16002KT 17/03 A3009 RMK A01 T01740025  RH  037%=      5-min Rain = 0
KPG1 171511Z 16001KT 17/02 A3009 RMK A01 T01740024  RH  037%=      5-min Rain = 0
KPG1 171512Z 17002KT 17/03 A3009 RMK A01 T01730025  RH  037%=      5-min Rain = 0
KPG1 171513Z 17001KT 17/03 A3009 RMK A01 T01740025  RH  037%=      5-min Rain = 0
KPG1 171514Z 20001KT 18/03 A3009 RMK A01 T01750025  RH  037%=      5-min Rain = 0
KPG1 171515Z 17003KT 18/03 A3009 RMK A01 T01760025  RH  036%=      5-min Rain = 0
KPG1 171516Z 18003KT 18/03 A3009 RMK A01 T01770025  RH  036%=      5-min Rain = 0
KPG1 171517Z 18002KT 18/02 A3009 RMK A01 T01750024  RH  036%=      5-min Rain = 0
KPG1 171518Z 18002KT 17/02 A3009 RMK A01 T01740024  RH  037%=      5-min Rain = 0
KPG1 171519Z 20002KT 17/02 A3009 RMK A01 T01740024  RH  037%=      5-min Rain = 0
KPG1 171520Z 21002KT 17/03 A3009 RMK A01 T01740025  RH  037%=      5-min Rain = 0
KPG1 171521Z 19002KT 18/03 A3009 RMK A01 T01760026  RH  037%=      5-min Rain = 0
KPG1 171522Z 20002KT 18/03 A3009 RMK A01 T01770025  RH  036%=      5-min Rain = 0
KPG1 171523Z 16002KT 18/03 A3009 RMK A01 T01770025  RH  036%=      5-min Rain = 0
KPG1 171524Z 18002KT 18/03 A3009 RMK A01 T01770025  RH  036%=      5-min Rain = 0
KPG1 171525Z 17001KT 18/03 A3009 RMK A01 T01770025  RH  036%=      5-min Rain = 0
KPG1 171526Z 18001KT 18/03 A3009 RMK A01 T01800027  RH  036%=      5-min Rain = 0
KPG1 171527Z 18002KT 18/03 A3009 RMK A01 T01820026  RH  035%=      5-min Rain = 0
KPG1 171528Z 19002KT 18/03 A3009 RMK A01 T01840028  RH  035%=      5-min Rain = 0
KPG1 171529Z 22002KT 19/03 A3009 RMK A01 T01850027  RH  035%=      5-min Rain = 0
KPG1 171530Z 20001KT 19/03 A3009 RMK A01 T01850027  RH  035%=      5-min Rain = 0
KPG1 171531Z 14003KT 18/03 A3009 RMK A01 T01840027  RH  035%=      5-min Rain = 0
KPG1 171532Z 13003KT 19/03 A3009 RMK A01 T01850026  RH  035%=      5-min Rain = 0
KPG1 171533Z 12002KT 19/03 A3009 RMK A01 T01850026  RH  035%=      5-min Rain = 0
KPG1 171534Z 13003KT 19/03 A3009 RMK A01 T01850027  RH  035%=      5-min Rain = 0
KPG1 171535Z 13002KT 19/03 A3009 RMK A01 T01870027  RH  034%=      5-min Rain = 0
KPG1 171536Z 14002KT 19/03 A3009 RMK A01 T01880027  RH  034%=      5-min Rain = 0
KPG1 171537Z 13002KT 19/03 A3009 RMK A01 T01890027  RH  034%=      5-min Rain = 0
KPG1 171538Z 12002KT 19/03 A3009 RMK A01 T01890026  RH  034%=      5-min Rain = 0
KPG1 171539Z 12002KT 19/03 A3009 RMK A01 T01870025  RH  034%=      5-min Rain = 0
KPG1 171540Z 14002KT 19/03 A3009 RMK A01 T01870027  RH  034%=      5-min Rain = 0
KPG1 171541Z 10002KT 19/03 A3009 RMK A01 T01900027  RH  034%=      5-min Rain = 0
KPG1 171542Z 11001KT 19/03 A3009 RMK A01 T01890026  RH  034%=      5-min Rain = 0
KPG1 171543Z 12001KT 19/03 A3009 RMK A01 T01900027  RH  034%=      5-min Rain = 0
KPG1 171544Z 15001KT 19/03 A3009 RMK A01 T01930028  RH  033%=      5-min Rain = 0
KPG1 171545Z 35000KT 19/03 A3009 RMK A01 T01940027  RH  033%=      5-min Rain = 0
KPG1 171546Z 11002KT 20/03 A3009 RMK A01 T01950028  RH  033%=      5-min Rain = 0
KPG1 171547Z 10003KT 20/03 A3009 RMK A01 T01960028  RH  033%=      5-min Rain = 0
KPG1 171548Z 10003KT 20/03 A3009 RMK A01 T01970029  RH  033%=      5-min Rain = 0
KPG1 171549Z 11003KT 20/03 A3009 RMK A01 T01980028  RH  032%=      5-min Rain = 0
KPG1 171550Z 15002KT 20/03 A3009 RMK A01 T01970028  RH  033%=      5-min Rain = 0
KPG1 171551Z 12002KT 20/03 A3009 RMK A01 T01980029  RH  033%=      5-min Rain = 0
KPG1 171552Z 14002KT 20/03 A3009 RMK A01 T01990029  RH  033%=      5-min Rain = 0
KPG1 171553Z 14002KT 20/03 A3009 RMK A01 T01990029  RH  032%=      5-min Rain = 0
KPG1 171554Z 10002KT 20/03 A3009 RMK A01 T01990029  RH  032%=      5-min Rain = 0
KPG1 171555Z 14002KT 20/03 A3009 RMK A01 T01990030  RH  032%=      5-min Rain = 0
KPG1 171556Z 20004KT 20/03 A3009 RMK A01 T02000030  RH  032%=      5-min Rain = 0
KPG1 171557Z 20004KT 20/03 A3009 RMK A01 T02000030  RH  032%=      5-min Rain = 0
KPG1 171558Z 20003KT 20/03 A3009 RMK A01 T01960029  RH  033%=      5-min Rain = 0
KPG1 171559Z 20002KT 19/03 A3009 RMK A01 T01940030  RH  034%=      5-min Rain = 0
KPG1 171600Z 18003KT 20/03 A3009 RMK A01 T01950031  RH  034%=      5-min Rain = 0
KPG1 171601Z 17003KT 20/03 A3009 RMK A01 T01970032  RH  034%=      5-min Rain = 0
KPG1 171602Z 14002KT 20/03 A3009 RMK A01 T02000034  RH  033%=      5-min Rain = 0
KPG1 171603Z 20001KT 20/03 A3009 RMK A01 T02020033  RH  033%=      5-min Rain = 0
KPG1 171604Z 20003KT 20/03 A3009 RMK A01 T02030032  RH  032%=      5-min Rain = 0
KPG1 171605Z 23003KT 20/03 A3009 RMK A01 T02030031  RH  032%=      5-min Rain = 0
KPG1 171606Z 21004KT 20/03 A3009 RMK A01 T02030031  RH  032%=      5-min Rain = 0
KPG1 171607Z 21005KT 20/03 A3009 RMK A01 T02030032  RH  032%=      5-min Rain = 0
KPG1 171608Z 23004KT 20/03 A3009 RMK A01 T02010032  RH  033%=      5-min Rain = 0
KPG1 171609Z 19002KT 20/03 A3009 RMK A01 T01990032  RH  033%=      5-min Rain = 0
KPG1 171610Z 18001KT 20/03 A3008 RMK A01 T01980031  RH  033%=      5-min Rain = 0
KPG1 171611Z 24002KT 20/03 A3008 RMK A01 T01990030  RH  033%=      5-min Rain = 0
KPG1 171612Z 23006KT 20/03 A3008 RMK A01 T01980031  RH  033%=      5-min Rain = 0
KPG1 171613Z 24005KT 20/03 A3008 RMK A01 T01980033  RH  033%=      5-min Rain = 0
KPG1 171614Z 21004KT 20/03 A3008 RMK A01 T01970033  RH  034%=      5-min Rain = 0
KPG1 171615Z 18005KT 20/03 A3008 RMK A01 T01980034  RH  034%=      5-min Rain = 0
KPG1 171616Z 17004KT 20/04 A3008 RMK A01 T02010035  RH  033%=      5-min Rain = 0
KPG1 171617Z 18004KT 20/04 A3008 RMK A01 T02020037  RH  034%=      5-min Rain = 0
KPG1 171618Z 20003KT 20/04 A3008 RMK A01 T02040038  RH  033%=      5-min Rain = 0
KPG1 171619Z 21003KT 21/04 A3008 RMK A01 T02050037  RH  033%=      5-min Rain = 0
KPG1 171620Z 20003KT 20/04 A3008 RMK A01 T02040036  RH  033%=      5-min Rain = 0
KPG1 171621Z 19003KT 20/04 A3008 RMK A01 T02040036  RH  033%=      5-min Rain = 0
KPG1 171622Z 19005KT 20/04 A3008 RMK A01 T02040035  RH  033%=      5-min Rain = 0
KPG1 171623Z 19003KT 20/04 A3008 RMK A01 T02030036  RH  033%=      5-min Rain = 0
KPG1 171624Z 17004KT 20/04 A3008 RMK A01 T02030037  RH  033%=      5-min Rain = 0
KPG1 171625Z 20004KT 20/04 A3008 RMK A01 T02030037  RH  033%=      5-min Rain = 0
KPG1 171626Z 22005KT 20/04 A3008 RMK A01 T02040039  RH  034%=      5-min Rain = 0
KPG1 171627Z 24004KT 21/04 A3008 RMK A01 T02050040  RH  034%=      5-min Rain = 0
KPG1 171628Z 23005KT 21/04 A3008 RMK A01 T02050041  RH  034%=      5-min Rain = 0
KPG1 171629Z 24005KT 20/04 A3008 RMK A01 T02030039  RH  034%=      5-min Rain = 0
KPG1 171630Z 25002KT 20/04 A3008 RMK A01 T02020037  RH  034%=      5-min Rain = 0
KPG1 171631Z 21004KT 20/04 A3008 RMK A01 T02000039  RH  034%=      5-min Rain = 0
KPG1 171632Z 23005KT 20/04 A3008 RMK A01 T02010039  RH  034%=      5-min Rain = 0
KPG1 171633Z 23003KT 20/04 A3008 RMK A01 T02010038  RH  034%=      5-min Rain = 0
KPG1 171634Z 21003KT 20/04 A3008 RMK A01 T02000038  RH  034%=      5-min Rain = 0
KPG1 171635Z 20005KT 20/04 A3008 RMK A01 T02020042  RH  035%=      5-min Rain = 0
KPG1 171636Z 17005KT 20/04 A3008 RMK A01 T02040044  RH  035%=      5-min Rain = 0
KPG1 171637Z 16005KT 21/04 A3008 RMK A01 T02080044  RH  034%=      5-min Rain = 0
KPG1 171638Z 17003KT 21/04 A3008 RMK A01 T02090043  RH  033%=      5-min Rain = 0
KPG1 171639Z 17002KT 21/04 A3007 RMK A01 T02080041  RH  033%=      5-min Rain = 0
KPG1 171640Z 25003KT 21/04 A3007 RMK A01 T02080042  RH  034%=      5-min Rain = 0
KPG1 171641Z 25004KT 21/04 A3007 RMK A01 T02090043  RH  034%=      5-min Rain = 0
KPG1 171642Z 24005KT 21/05 A3007 RMK A01 T02070045  RH  034%=      5-min Rain = 0
KPG1 171643Z 24005KT 21/05 A3007 RMK A01 T02060045  RH  035%=      5-min Rain = 0
KPG1 171644Z 24006KT 21/04 A3007 RMK A01 T02070043  RH  034%=      5-min Rain = 0
KPG1 171645Z 23005KT 21/04 A3007 RMK A01 T02070044  RH  034%=      5-min Rain = 0
KPG1 171646Z 22007KT 21/04 A3007 RMK A01 T02070043  RH  034%=      5-min Rain = 0
KPG1 171647Z 24006KT 21/04 A3007 RMK A01 T02080043  RH  034%=      5-min Rain = 0
KPG1 171648Z 24005KT 21/04 A3007 RMK A01 T02080044  RH  034%=      5-min Rain = 0
KPG1 171649Z 24004KT 21/04 A3007 RMK A01 T02100043  RH  033%=      5-min Rain = 0
KPG1 171650Z 23005KT 21/04 A3007 RMK A01 T02100044  RH  034%=      5-min Rain = 0
KPG1 171651Z 20004KT 21/04 A3007 RMK A01 T02100044  RH  034%=      5-min Rain = 0
KPG1 171652Z 24005KT 21/04 A3007 RMK A01 T02100044  RH  034%=      5-min Rain = 0
KPG1 171653Z 25006KT 21/04 A3007 RMK A01 T02100044  RH  034%=      5-min Rain = 0
KPG1 171654Z 24006KT 21/05 A3007 RMK A01 T02110045  RH  034%=      5-min Rain = 0
KPG1 171655Z 27007KT 21/05 A3007 RMK A01 T02120045  RH  033%=      5-min Rain = 0
KPG1 171656Z 26004KT 21/04 A3007 RMK A01 T02120044  RH  033%=      5-min Rain = 0
KPG1 171657Z 23003KT 21/04 A3007 RMK A01 T02100044  RH  034%=      5-min Rain = 0
KPG1 171658Z 24007KT 21/05 A3007 RMK A01 T02100045  RH  034%=      5-min Rain = 0
KPG1 171659Z 24009KT 21/05 A3007 RMK A01 T02110048  RH  034%=      5-min Rain = 0
KPG1 171700Z 23008KT 21/05 A3007 RMK A01 T02110048  RH  034%=      5-min Rain = 0
KPG1 171701Z 23005KT 21/05 A3007 RMK A01 T02100047  RH  035%=      5-min Rain = 0
KPG1 171702Z 22006KT 21/05 A3007 RMK A01 T02110050  RH  035%=      5-min Rain = 0
KPG1 171703Z 20004KT 21/05 A3007 RMK A01 T02140048  RH  034%=      5-min Rain = 0
KPG1 171704Z 24006KT 22/05 A3007 RMK A01 T02150049  RH  034%=      5-min Rain = 0
KPG1 171705Z 21005KT 22/05 A3007 RMK A01 T02160048  RH  033%=      5-min Rain = 0
KPG1 171706Z 18005KT 21/05 A3006 RMK A01 T02140048  RH  034%=      5-min Rain = 0
KPG1 171707Z 19003KT 22/05 A3006 RMK A01 T02150048  RH  034%=      5-min Rain = 0
KPG1 171708Z 24005KT 22/05 A3006 RMK A01 T02160048  RH  033%=      5-min Rain = 0
KPG1 171709Z 23007KT 22/05 A3006 RMK A01 T02160050  RH  034%=      5-min Rain = 0
KPG1 171710Z 22005KT 22/05 A3006 RMK A01 T02170050  RH  034%=      5-min Rain = 0
KPG1 171711Z 19005KT 22/05 A3006 RMK A01 T02150050  RH  034%=      5-min Rain = 0
KPG1 171712Z 19005KT 22/05 A3006 RMK A01 T02150050  RH  034%=      5-min Rain = 0
KPG1 171713Z 20006KT 22/05 A3006 RMK A01 T02160051  RH  034%=      5-min Rain = 0
KPG1 171714Z 24009KT 22/05 A3006 RMK A01 T02200053  RH  034%=      5-min Rain = 0
KPG1 171715Z 23008KT 22/05 A3006 RMK A01 T02210053  RH  033%=      5-min Rain = 0
KPG1 171716Z 23008KT 22/05 A3006 RMK A01 T02210053  RH  033%=      5-min Rain = 0
KPG1 171717Z 22007KT 22/05 A3006 RMK A01 T02210052  RH  033%=      5-min Rain = 0
KPG1 171718Z 21006KT 22/05 A3006 RMK A01 T02190051  RH  033%=      5-min Rain = 0
KPG1 171719Z 20007KT 22/05 A3006 RMK A01 T02180051  RH  034%=      5-min Rain = 0
KPG1 171720Z 20005KT 22/05 A3006 RMK A01 T02200051  RH  033%=      5-min Rain = 0
KPG1 171721Z 18005KT 22/05 A3006 RMK A01 T02200051  RH  033%=      5-min Rain = 0
KPG1 171722Z 19005KT 22/05 A3006 RMK A01 T02220052  RH  033%=      5-min Rain = 0
KPG1 171723Z 25009KT 22/05 A3006 RMK A01 T02240052  RH  033%=      5-min Rain = 0
KPG1 171724Z 25008KT 22/05 A3005 RMK A01 T02230052  RH  033%=      5-min Rain = 0
KPG1 171725Z 25006KT 22/05 A3006 RMK A01 T02210053  RH  033%=      5-min Rain = 0
KPG1 171726Z 26005KT 22/05 A3005 RMK A01 T02200052  RH  034%=      5-min Rain = 0
KPG1 171727Z 25008KT 22/05 A3005 RMK A01 T02210052  RH  033%=      5-min Rain = 0
KPG1 171728Z 23009KT 22/05 A3005 RMK A01 T02220052  RH  033%=      5-min Rain = 0
KPG1 171729Z 21009KT 22/06 A3005 RMK A01 T02230055  RH  034%=      5-min Rain = 0
KPG1 171730Z 21008KT 22/05 A3005 RMK A01 T02230054  RH  033%=      5-min Rain = 0
KPG1 171731Z 23009KT 22/05 A3005 RMK A01 T02230054  RH  033%=      5-min Rain = 0
KPG1 171732Z 22008KT 22/06 A3005 RMK A01 T02230056  RH  034%=      5-min Rain = 0
KPG1 171733Z 23006KT 22/06 A3005 RMK A01 T02230055  RH  034%=      5-min Rain = 0
KPG1 171734Z 24006KT 22/06 A3005 RMK A01 T02210055  RH  034%=      5-min Rain = 0
KPG1 171735Z 25005KT 22/06 A3005 RMK A01 T02200055  RH  034%=      5-min Rain = 0
KPG1 171736Z 24005G10KT 22/06 A3005 RMK A01 T02200056  RH  034%=      5-min Rain = 0
KPG1 171737Z 22007G12KT 22/06 A3005 RMK A01 T02200058  RH  035%=      5-min Rain = 0
KPG1 171738Z 20007KT 22/06 A3005 RMK A01 T02220060  RH  035%=      5-min Rain = 0
KPG1 171739Z 19007KT 23/06 A3005 RMK A01 T02270061  RH  034%=      5-min Rain = 0
KPG1 171740Z 19009KT 23/06 A3005 RMK A01 T02290061  RH  034%=      5-min Rain = 0
KPG1 171741Z 19008KT 23/06 A3005 RMK A01 T02320061  RH  033%=      5-min Rain = 0
KPG1 171742Z 20005KT 23/06 A3005 RMK A01 T02330059  RH  032%=      5-min Rain = 0
KPG1 171743Z 19004KT 23/06 A3005 RMK A01 T02340059  RH  032%=      5-min Rain = 0
KPG1 171744Z 20006KT 23/06 A3005 RMK A01 T02340059  RH  032%=      5-min Rain = 0
KPG1 171745Z 24007KT 23/06 A3004 RMK A01 T02330061  RH  033%=      5-min Rain = 0
KPG1 171746Z 22008KT 23/06 A3004 RMK A01 T02310062  RH  034%=      5-min Rain = 0
KPG1 171747Z 21006KT 23/06 A3004 RMK A01 T02340060  RH  033%=      5-min Rain = 0
KPG1 171748Z 21006KT 24/06 A3004 RMK A01 T02350061  RH  032%=      5-min Rain = 0
KPG1 171749Z 24007KT 23/06 A3004 RMK A01 T02320061  RH  033%=      5-min Rain = 0
KPG1 171750Z 24006KT 23/06 A3004 RMK A01 T02300062  RH  034%=      5-min Rain = 0
KPG1 171751Z 25005KT 23/06 A3004 RMK A01 T02290061  RH  034%=      5-min Rain = 0
KPG1 171752Z 23006KT 23/06 A3004 RMK A01 T02290062  RH  034%=      5-min Rain = 0
KPG1 171753Z 20005KT 23/06 A3004 RMK A01 T02290061  RH  034%=      5-min Rain = 0
KPG1 171754Z 18005KT 23/06 A3004 RMK A01 T02320056  RH  032%=      5-min Rain = 0
KPG1 171755Z 18004KT 23/06 A3004 RMK A01 T02330055  RH  032%=      5-min Rain = 0
KPG1 171756Z 16004KT 23/06 A3004 RMK A01 T02340056  RH  032%=      5-min Rain = 0
KPG1 171757Z 17004KT 24/06 A3004 RMK A01 T02360057  RH  031%=      5-min Rain = 0
KPG1 171758Z 17007KT 24/06 A3004 RMK A01 T02390057  RH  031%=      5-min Rain = 0
KPG1 171759Z 17009KT 24/06 A3003 RMK A01 T02400057  RH  031%=      5-min Rain = 0
KPG1 171800Z 17006KT 24/06 A3003 RMK A01 T02380057  RH  031%=      5-min Rain = 0
KPG1 171801Z 19004KT 24/06 A3003 RMK A01 T02350058  RH  032%=      5-min Rain = 0
KPG1 171802Z 17004KT 23/06 A3003 RMK A01 T02340057  RH  032%=      5-min Rain = 0
KPG1 171803Z 18008KT 23/06 A3003 RMK A01 T02330058  RH  032%=      5-min Rain = 0
KPG1 171804Z 19005KT 24/06 A3003 RMK A01 T02350059  RH  032%=      5-min Rain = 0
KPG1 171805Z 18009KT 24/06 A3003 RMK A01 T02370059  RH  032%=      5-min Rain = 0
KPG1 171806Z 20007KT 24/06 A3003 RMK A01 T02380059  RH  032%=      5-min Rain = 0
KPG1 171807Z 18009KT 24/06 A3003 RMK A01 T02360061  RH  032%=      5-min Rain = 0
KPG1 171808Z 17008KT 24/06 A3003 RMK A01 T02370062  RH  032%=      5-min Rain = 0
KPG1 171809Z 17009KT 24/06 A3003 RMK A01 T02370061  RH  032%=      5-min Rain = 0
KPG1 171810Z 18006KT 24/06 A3003 RMK A01 T02350061  RH  032%=      5-min Rain = 0
KPG1 171811Z 18007KT 24/06 A3003 RMK A01 T02380060  RH  032%=      5-min Rain = 0
KPG1 171812Z 18006KT 24/06 A3003 RMK A01 T02400059  RH  031%=      5-min Rain = 0
KPG1 171813Z 19005KT 24/06 A3003 RMK A01 T02390060  RH  031%=      5-min Rain = 0
KPG1 171814Z 17006KT 24/06 A3003 RMK A01 T02400057  RH  031%=      5-min Rain = 0
KPG1 171815Z 17007KT 24/06 A3003 RMK A01 T02420056  RH  030%=      5-min Rain = 0
KPG1 171816Z 17008KT 24/06 A3003 RMK A01 T02440059  RH  030%=      5-min Rain = 0
KPG1 171817Z 18006KT 25/06 A3003 RMK A01 T02450059  RH  030%=      5-min Rain = 0
KPG1 171818Z 18005KT 24/06 A3003 RMK A01 T02440058  RH  030%=      5-min Rain = 0
KPG1 171819Z 16007KT 25/06 A3003 RMK A01 T02450060  RH  030%=      5-min Rain = 0
KPG1 171820Z 15006KT 25/06 A3002 RMK A01 T02480058  RH  029%=      5-min Rain = 0
KPG1 171821Z 19004KT 25/06 A3002 RMK A01 T02460057  RH  029%=      5-min Rain = 0
KPG1 171822Z 20003KT 24/06 A3002 RMK A01 T02440056  RH  030%=      5-min Rain = 0
KPG1 171823Z 17007KT 24/06 A3002 RMK A01 T02440058  RH  030%=      5-min Rain = 0
KPG1 171824Z 19007KT 25/06 A3002 RMK A01 T02460060  RH  030%=      5-min Rain = 0
KPG1 171825Z 18006KT 24/06 A3002 RMK A01 T02440059  RH  030%=      5-min Rain = 0
KPG1 171826Z 17008KT 24/06 A3002 RMK A01 T02430061  RH  031%=      5-min Rain = 0
KPG1 171827Z 22009KT 25/07 A3002 RMK A01 T02490066  RH  031%=      5-min Rain = 0
KPG1 171828Z 22009KT 25/07 A3002 RMK A01 T02510070  RH  031%=      5-min Rain = 0
KPG1 171829Z 21007KT 25/07 A3002 RMK A01 T02460069  RH  032%=      5-min Rain = 0
KPG1 171830Z 22005KT 24/07 A3002 RMK A01 T02430068  RH  033%=      5-min Rain = 0
KPG1 171831Z 20004KT 24/07 A3002 RMK A01 T02400068  RH  033%=      5-min Rain = 0
KPG1 171832Z 21008KT 24/07 A3002 RMK A01 T02420068  RH  033%=      5-min Rain = 0
KPG1 171833Z 21005KT 24/07 A3001 RMK A01 T02440068  RH  032%=      5-min Rain = 0
KPG1 171834Z 25003KT 24/07 A3001 RMK A01 T02430067  RH  032%=      5-min Rain = 0
KPG1 171835Z 20002KT 24/07 A3001 RMK A01 T02430068  RH  032%=      5-min Rain = 0
KPG1 171836Z 17003KT 25/07 A3001 RMK A01 T02450069  RH  032%=      5-min Rain = 0
KPG1 171837Z 19005KT 25/07 A3001 RMK A01 T02460068  RH  032%=      5-min Rain = 0
KPG1 171838Z 18007KT 25/07 A3001 RMK A01 T02500069  RH  031%=      5-min Rain = 0
KPG1 171839Z 20009KT 25/07 A3001 RMK A01 T02520071  RH  031%=      5-min Rain = 0
KPG1 171840Z 18008KT 25/07 A3001 RMK A01 T02520071  RH  031%=      5-min Rain = 0
KPG1 171841Z 19008KT 25/07 A3001 RMK A01 T02510071  RH  032%=      5-min Rain = 0
KPG1 171842Z 22007KT 25/07 A3001 RMK A01 T02520072  RH  032%=      5-min Rain = 0
KPG1 171843Z 22007KT 25/07 A3001 RMK A01 T02510070  RH  031%=      5-min Rain = 0
KPG1 171844Z 19007KT 25/07 A3001 RMK A01 T02500069  RH  031%=      5-min Rain = 0
KPG1 171845Z 24007KT 25/07 A3001 RMK A01 T02530070  RH  031%=      5-min Rain = 0
KPG1 171846Z 24005KT 25/07 A3001 RMK A01 T02540071  RH  031%=      5-min Rain = 0
KPG1 171847Z 22007KT 26/07 A3001 RMK A01 T02560070  RH  031%=      5-min Rain = 0
KPG1 171848Z 20004KT 25/07 A30 RMK A01 T02540069  RH  031%=      5-min Rain = 0
KPG1 171849Z 25005KT 25/07 A30 RMK A01 T02520070  RH  031%=      5-min Rain = 0
KPG1 171850Z 25004KT 25/07 A30 RMK A01 T02540072  RH  031%=      5-min Rain = 0
KPG1 171851Z 24006KT 25/07 A30 RMK A01 T02540073  RH  032%=      5-min Rain = 0
KPG1 171852Z 25005KT 25/07 A30 RMK A01 T02530074  RH  032%=      5-min Rain = 0
KPG1 171853Z 21006KT 25/08 A30 RMK A01 T02520075  RH  032%=      5-min Rain = 0
KPG1 171854Z 16007KT 26/07 A30 RMK A01 T02550073  RH  031%=      5-min Rain = 0
KPG1 171855Z 17007KT 26/07 A30 RMK A01 T02550073  RH  031%=      5-min Rain = 0
KPG1 171856Z 17006KT 26/07 A30 RMK A01 T02550071  RH  031%=      5-min Rain = 0
KPG1 171857Z 20006KT 26/07 A30 RMK A01 T02550071  RH  031%=      5-min Rain = 0
KPG1 171858Z 19005KT 25/07 A30 RMK A01 T02520070  RH  031%=      5-min Rain = 0
KPG1 171859Z 20006KT 25/07 A30 RMK A01 T02530072  RH  032%=      5-min Rain = 0
KPG1 171900Z 16007KT 26/08 A2999 RMK A01 T02590075  RH  031%=      5-min Rain = 0
KPG1 171901Z 17007KT 26/08 A2999 RMK A01 T02600075  RH  031%=      5-min Rain = 0
KPG1 171902Z 18005KT 26/07 A2999 RMK A01 T02630073  RH  030%=      5-min Rain = 0
KPG1 171903Z 18005KT 27/07 A2999 RMK A01 T02660073  RH  029%=      5-min Rain = 0
KPG1 171904Z 15008KT 27/07 A2999 RMK A01 T02670073  RH  029%=      5-min Rain = 0
KPG1 171905Z 14009KT 26/07 A2999 RMK A01 T02640073  RH  030%=      5-min Rain = 0
KPG1 171906Z 17009KT 26/07 A2999 RMK A01 T02620074  RH  030%=      5-min Rain = 0
KPG1 171907Z 18007KT 26/07 A2999 RMK A01 T02620074  RH  030%=      5-min Rain = 0
KPG1 171908Z 19010KT 26/08 A2999 RMK A01 T02620075  RH  031%=      5-min Rain = 0
KPG1 171909Z 18007KT 26/08 A2999 RMK A01 T02610076  RH  031%=      5-min Rain = 0
KPG1 171910Z 17005KT 26/08 A2998 RMK A01 T02620075  RH  031%=      5-min Rain = 0
KPG1 171911Z 15005KT 26/08 A2998 RMK A01 T02600076  RH  031%=      5-min Rain = 0
KPG1 171912Z 14005KT 26/08 A2998 RMK A01 T02600076  RH  031%=      5-min Rain = 0
KPG1 171913Z 16007KT 26/08 A2998 RMK A01 T02610076  RH  031%=      5-min Rain = 0
KPG1 171914Z 16005KT 26/08 A2998 RMK A01 T02620077  RH  031%=      5-min Rain = 0
KPG1 171915Z 15006KT 26/08 A2998 RMK A01 T02630076  RH  030%=      5-min Rain = 0
KPG1 171916Z 15005KT 26/08 A2998 RMK A01 T02620076  RH  031%=      5-min Rain = 0
KPG1 171917Z 16004KT 26/08 A2998 RMK A01 T02620075  RH  030%=      5-min Rain = 0
KPG1 171918Z 19005KT 26/08 A2998 RMK A01 T02620075  RH  031%=      5-min Rain = 0
KPG1 171919Z 20009KT 26/08 A2998 RMK A01 T02630075  RH  030%=      5-min Rain = 0
KPG1 171920Z 21007KT 26/08 A2998 RMK A01 T02630076  RH  030%=      5-min Rain = 0
KPG1 171921Z 24003KT 26/08 A2997 RMK A01 T02620076  RH  031%=      5-min Rain = 0
KPG1 171922Z 16003KT 26/08 A2997 RMK A01 T02630076  RH  031%=      5-min Rain = 0
KPG1 171923Z 17003KT 26/08 A2997 RMK A01 T02630075  RH  030%=      5-min Rain = 0
KPG1 171924Z 22007KT 26/08 A2997 RMK A01 T02620076  RH  031%=      5-min Rain = 0
KPG1 171925Z 23006KT 26/08 A2997 RMK A01 T02640077  RH  031%=      5-min Rain = 0
KPG1 171926Z 22006KT 27/08 A2997 RMK A01 T02660077  RH  030%=      5-min Rain = 0
KPG1 171927Z 22006KT 26/08 A2997 RMK A01 T02630076  RH  030%=      5-min Rain = 0
KPG1 171928Z 19005KT 26/08 A2997 RMK A01 T02610076  RH  031%=      5-min Rain = 0
KPG1 171929Z 19010KT 26/08 A2997 RMK A01 T02610077  RH  031%=      5-min Rain = 0
KPG1 171930Z 19007KT 26/08 A2997 RMK A01 T02620076  RH  031%=      5-min Rain = 0
KPG1 171931Z 16007KT 26/08 A2997 RMK A01 T02620076  RH  031%=      5-min Rain = 0
KPG1 171932Z 16006KT 26/08 A2997 RMK A01 T02620077  RH  031%=      5-min Rain = 0
KPG1 171933Z 13004KT 26/08 A2997 RMK A01 T02630076  RH  031%=      5-min Rain = 0
KPG1 171934Z 18003KT 26/08 A2996 RMK A01 T02640077  RH  030%=      5-min Rain = 0
KPG1 171935Z 24007KT 27/08 A2996 RMK A01 T02680078  RH  030%=      5-min Rain = 0
KPG1 171936Z 25007KT 27/08 A2996 RMK A01 T02700078  RH  030%=      5-min Rain = 0
KPG1 171937Z 26007KT 27/08 A2996 RMK A01 T02670078  RH  030%=      5-min Rain = 0
KPG1 171938Z 21006KT 27/08 A2996 RMK A01 T02650077  RH  030%=      5-min Rain = 0
KPG1 171939Z 21005KT 26/08 A2996 RMK A01 T02640075  RH  030%=      5-min Rain = 0
KPG1 171940Z 24004KT 26/08 A2996 RMK A01 T02630075  RH  030%=      5-min Rain = 0
KPG1 171941Z 21003KT 26/08 A2996 RMK A01 T02620076  RH  031%=      5-min Rain = 0
KPG1 171942Z 21004KT 26/08 A2996 RMK A01 T02640076  RH  030%=      5-min Rain = 0
KPG1 171943Z 21007KT 27/08 A2996 RMK A01 T02670075  RH  030%=      5-min Rain = 0
KPG1 171944Z 20007KT 27/07 A2996 RMK A01 T02680074  RH  029%=      5-min Rain = 0
KPG1 171945Z 18008KT 27/07 A2996 RMK A01 T02690074  RH  029%=      5-min Rain = 0
KPG1 171946Z 18008KT 27/07 A2996 RMK A01 T02700073  RH  029%=      5-min Rain = 0
KPG1 171947Z 18007KT 27/07 A2996 RMK A01 T02690073  RH  029%=      5-min Rain = 0
KPG1 171948Z 17005KT 27/07 A2996 RMK A01 T02670071  RH  029%=      5-min Rain = 0
KPG1 171949Z 17005KT 27/07 A2995 RMK A01 T02660070  RH  029%=      5-min Rain = 0
KPG1 171950Z 10002KT 26/07 A2995 RMK A01 T02640071  RH  029%=      5-min Rain = 0
KPG1 171951Z 14002KT 26/07 A2995 RMK A01 T02620072  RH  030%=      5-min Rain = 0
KPG1 171952Z 14006KT 26/07 A2995 RMK A01 T02640073  RH  030%=      5-min Rain = 0
KPG1 171953Z 12002KT 26/07 A2995 RMK A01 T02640072  RH  030%=      5-min Rain = 0
KPG1 171954Z 13001KT 27/07 A2995 RMK A01 T02650074  RH  030%=      5-min Rain = 0
KPG1 171955Z 13003KT 27/07 A2995 RMK A01 T02700074  RH  029%=      5-min Rain = 0
KPG1 171956Z 14003KT 27/07 A2995 RMK A01 T02730074  RH  028%=      5-min Rain = 0
KPG1 171957Z 16003KT 28/07 A2995 RMK A01 T02750074  RH  028%=      5-min Rain = 0
KPG1 171958Z 19002KT 27/07 A2995 RMK A01 T02740073  RH  028%=      5-min Rain = 0
KPG1 171959Z 26002KT 27/07 A2995 RMK A01 T02730074  RH  028%=      5-min Rain = 0
KPG1 172000Z 16006KT 27/07 A2995 RMK A01 T02740074  RH  028%=      5-min Rain = 0
KPG1 172001Z 18007KT 27/07 A2994 RMK A01 T02730074  RH  028%=      5-min Rain = 0
KPG1 172002Z 18010KT 27/07 A2994 RMK A01 T02730074  RH  028%=      5-min Rain = 0
KPG1 172003Z 19007KT 27/07 A2994 RMK A01 T02720074  RH  028%=      5-min Rain = 0
KPG1 172004Z 22009KT 28/08 A2994 RMK A01 T02750075  RH  028%=      5-min Rain = 0
KPG1 172005Z 23009KT 27/07 A2994 RMK A01 T02740074  RH  028%=      5-min Rain = 0
KPG1 172006Z 22010KT 27/07 A2994 RMK A01 T02730074  RH  028%=      5-min Rain = 0
KPG1 172007Z 22010KT 27/07 A2994 RMK A01 T02710073  RH  029%=      5-min Rain = 0
KPG1 172008Z 25007KT 27/07 A2994 RMK A01 T02690072  RH  029%=      5-min Rain = 0
KPG1 172009Z 27006KT 27/07 A2994 RMK A01 T02680072  RH  029%=      5-min Rain = 0
KPG1 172010Z 27005KT 27/07 A2994 RMK A01 T02670072  RH  029%=      5-min Rain = 0
KPG1 172011Z 21006KT 27/07 A2994 RMK A01 T02650072  RH  029%=      5-min Rain = 0
KPG1 172012Z 18009KT 27/07 A2994 RMK A01 T02670072  RH  029%=      5-min Rain = 0
KPG1 172013Z 17008KT 27/07 A2994 RMK A01 T02680072  RH  029%=      5-min Rain = 0
KPG1 172014Z 17006KT 27/07 A2994 RMK A01 T02690071  RH  029%=      5-min Rain = 0
KPG1 172015Z 18007KT 27/07 A2994 RMK A01 T02680071  RH  029%=      5-min Rain = 0
KPG1 172016Z 17008KT 27/07 A2993 RMK A01 T02700071  RH  028%=      5-min Rain = 0
KPG1 172017Z 16006KT 27/07 A2993 RMK A01 T02710071  RH  028%=      5-min Rain = 0
KPG1 172018Z 17003KT 27/07 A2993 RMK A01 T02700071  RH  028%=      5-min Rain = 0
KPG1 172019Z 16005G10KT 27/07 A2993 RMK A01 T02690072  RH  029%=      5-min Rain = 0
KPG1 172020Z 17008KT 27/07 A2993 RMK A01 T02720071  RH  028%=      5-min Rain = 0
KPG1 172021Z 17006KT 28/07 A2993 RMK A01 T02750070  RH  027%=      5-min Rain = 0
KPG1 172022Z 14005KT 28/07 A2993 RMK A01 T02760068  RH  027%=      5-min Rain = 0
KPG1 172023Z 17007KT 28/07 A2993 RMK A01 T02750069  RH  027%=      5-min Rain = 0
KPG1 172024Z 17006KT 28/07 A2993 RMK A01 T02780070  RH  027%=      5-min Rain = 0
KPG1 172025Z 15006KT 28/07 A2993 RMK A01 T02790069  RH  027%=      5-min Rain = 0
KPG1 172026Z 16003KT 28/07 A2993 RMK A01 T02760068  RH  027%=      5-min Rain = 0
KPG1 172027Z 14007KT 28/07 A2993 RMK A01 T02750068  RH  027%=      5-min Rain = 0
KPG1 172028Z 15006KT 27/07 A2993 RMK A01 T02740067  RH  027%=      5-min Rain = 0
KPG1 172029Z 16004KT 27/07 A2993 RMK A01 T02710067  RH  027%=      5-min Rain = 0
KPG1 172030Z 14008KT 27/07 A2993 RMK A01 T02700068  RH  028%=      5-min Rain = 0
KPG1 172031Z 16006KT 27/07 A2993 RMK A01 T02700069  RH  028%=      5-min Rain = 0
KPG1 172032Z 16004KT 27/07 A2993 RMK A01 T02720070  RH  028%=      5-min Rain = 0
KPG1 172033Z 16004KT 27/07 A2993 RMK A01 T02740068  RH  027%=      5-min Rain = 0
KPG1 172034Z 16001KT 27/07 A2993 RMK A01 T02730069  RH  027%=      5-min Rain = 0
KPG1 172035Z 07003KT 27/07 A2992 RMK A01 T02730068  RH  027%=      5-min Rain = 0
KPG1 172036Z 10002KT 27/07 A2992 RMK A01 T02710066  RH  027%=      5-min Rain = 0
KPG1 172037Z 17004KT 27/07 A2992 RMK A01 T02700067  RH  028%=      5-min Rain = 0
KPG1 172038Z 18008KT 27/07 A2992 RMK A01 T02730069  RH  027%=      5-min Rain = 0
KPG1 172039Z 18008KT 28/07 A2992 RMK A01 T02780068  RH  026%=      5-min Rain = 0
KPG1 172040Z 17010KT 28/07 A2992 RMK A01 T02790067  RH  026%=      5-min Rain = 0
KPG1 172041Z 18008KT 28/07 A2992 RMK A01 T02790067  RH  026%=      5-min Rain = 0
KPG1 172042Z 17007KT 28/06 A2992 RMK A01 T02780064  RH  026%=      5-min Rain = 0
KPG1 172043Z 15004KT 28/06 A2992 RMK A01 T02760062  RH  026%=      5-min Rain = 0
KPG1 172044Z 19006KT 28/06 A2992 RMK A01 T02760060  RH  025%=      5-min Rain = 0
KPG1 172045Z 19004KT 28/06 A2992 RMK A01 T02780057  RH  024%=      5-min Rain = 0
KPG1 172046Z 20004KT 28/06 A2992 RMK A01 T02770055  RH  024%=      5-min Rain = 0
KPG1 172047Z 19004KT 28/06 A2992 RMK A01 T02760055  RH  025%=      5-min Rain = 0
KPG1 172048Z 17005KT 28/06 A2992 RMK A01 T02790061  RH  025%=      5-min Rain = 0
KPG1 172049Z 15007KT 28/07 A2992 RMK A01 T02820065  RH  025%=      5-min Rain = 0
KPG1 172050Z 14007KT 28/06 A2992 RMK A01 T02820064  RH  025%=      5-min Rain = 0
KPG1 172051Z 15006KT 28/07 A2992 RMK A01 T02800065  RH  025%=      5-min Rain = 0
KPG1 172052Z 13006KT 28/06 A2992 RMK A01 T02790061  RH  025%=      5-min Rain = 0
KPG1 172053Z 13006KT 28/06 A2992 RMK A01 T02760059  RH  025%=      5-min Rain = 0
KPG1 172054Z 15007KT 27/06 A2992 RMK A01 T02740060  RH  026%=      5-min Rain = 0
KPG1 172055Z 12006KT 28/06 A2992 RMK A01 T02760058  RH  025%=      5-min Rain = 0
KPG1 172056Z 12004KT 28/06 A2992 RMK A01 T02750058  RH  025%=      5-min Rain = 0
KPG1 172057Z 12004KT 28/06 A2992 RMK A01 T02760057  RH  025%=      5-min Rain = 0
KPG1 172058Z 14005KT 28/06 A2992 RMK A01 T02770056  RH  024%=      5-min Rain = 0
KPG1 172059Z 15005KT 28/06 A2992 RMK A01 T02790057  RH  024%=      5-min Rain = 0
KPG1 172100Z 11003KT 28/06 A2991 RMK A01 T02760059  RH  025%=      5-min Rain = 0
KPG1 172101Z 15006KT 28/06 A2991 RMK A01 T02760058  RH  025%=      5-min Rain = 0
KPG1 172102Z 14007KT 28/06 A2991 RMK A01 T02770057  RH  025%=      5-min Rain = 0
KPG1 172103Z 14006KT 28/06 A2991 RMK A01 T02780057  RH  025%=      5-min Rain = 0
KPG1 172104Z 12003KT 28/06 A2991 RMK A01 T02770055  RH  024%=      5-min Rain = 0
KPG1 172105Z 14002KT 28/05 A2991 RMK A01 T02770054  RH  024%=      5-min Rain = 0
KPG1 172106Z 18007KT 28/06 A2991 RMK A01 T02790055  RH  024%=      5-min Rain = 0
KPG1 172107Z 18009KT 28/05 A2991 RMK A01 T02810054  RH  024%=      5-min Rain = 0
KPG1 172108Z 17008KT 28/05 A2991 RMK A01 T02810050  RH  023%=      5-min Rain = 0
KPG1 172109Z 15005KT 28/05 A2991 RMK A01 T02790045  RH  022%=      5-min Rain = 0
KPG1 172110Z 13008KT 28/05 A2991 RMK A01 T02770048  RH  023%=      5-min Rain = 0
KPG1 172111Z 13007KT 28/05 A2991 RMK A01 T02770048  RH  023%=      5-min Rain = 0
KPG1 172112Z 12005KT 28/05 A2991 RMK A01 T02760052  RH  024%=      5-min Rain = 0
KPG1 172113Z 10004KT 28/06 A2991 RMK A01 T02780056  RH  024%=      5-min Rain = 0
KPG1 172114Z 10003KT 28/06 A2991 RMK A01 T02790058  RH  025%=      5-min Rain = 0
KPG1 172115Z 07001KT 28/06 A2991 RMK A01 T02800055  RH  024%=      5-min Rain = 0
KPG1 172116Z 06002KT 28/05 A2991 RMK A01 T02790054  RH  024%=      5-min Rain = 0
KPG1 172117Z 04002KT 28/05 A2991 RMK A01 T02780052  RH  024%=      5-min Rain = 0
KPG1 172118Z 07002KT 28/05 A2991 RMK A01 T02780051  RH  024%=      5-min Rain = 0
KPG1 172119Z 06002KT 28/05 A2991 RMK A01 T02770053  RH  024%=      5-min Rain = 0
KPG1 172120Z 09004KT 28/05 A2991 RMK A01 T02780054  RH  024%=      5-min Rain = 0
KPG1 172121Z 11005KT 28/06 A2991 RMK A01 T02780058  RH  025%=      5-min Rain = 0
KPG1 172122Z 13006KT 28/06 A2991 RMK A01 T02760059  RH  025%=      5-min Rain = 0
KPG1 172123Z 15006KT 28/06 A2991 RMK A01 T02800062  RH  025%=      5-min Rain = 0
KPG1 172124Z 15008KT 28/06 A2991 RMK A01 T02830062  RH  024%=      5-min Rain = 0
KPG1 172125Z 14007KT 28/06 A2991 RMK A01 T02830061  RH  025%=      5-min Rain = 0
KPG1 172126Z 14006KT 28/06 A2991 RMK A01 T02800061  RH  025%=      5-min Rain = 0
KPG1 172127Z 14005KT 28/06 A2991 RMK A01 T02790061  RH  025%=      5-min Rain = 0
KPG1 172128Z 13003KT 28/06 A2991 RMK A01 T02790060  RH  025%=      5-min Rain = 0
KPG1 172129Z 12004KT 28/06 A2991 RMK A01 T02790060  RH  025%=      5-min Rain = 0
KPG1 172130Z 11005KT 28/06 A299 RMK A01 T02810058  RH  024%=      5-min Rain = 0
KPG1 172131Z 08004KT 28/06 A299 RMK A01 T02800058  RH  024%=      5-min Rain = 0
KPG1 172132Z 04003KT 28/06 A299 RMK A01 T02770058  RH  025%=      5-min Rain = 0
KPG1 172133Z 07002KT 28/06 A299 RMK A01 T02770059  RH  025%=      5-min Rain = 0
KPG1 172134Z 14006KT 28/06 A299 RMK A01 T02790059  RH  025%=      5-min Rain = 0
KPG1 172135Z 13009KT 28/06 A299 RMK A01 T02820056  RH  024%=      5-min Rain = 0
KPG1 172136Z 12008KT 28/06 A299 RMK A01 T02810055  RH  024%=      5-min Rain = 0
KPG1 172137Z 13006KT 28/05 A299 RMK A01 T02820054  RH  023%=      5-min Rain = 0
KPG1 172138Z 12004KT 28/05 A299 RMK A01 T02820053  RH  023%=      5-min Rain = 0
KPG1 172139Z 12003KT 28/05 A299 RMK A01 T02810053  RH  023%=      5-min Rain = 0
KPG1 172140Z 07004KT 28/05 A299 RMK A01 T02800054  RH  024%=      5-min Rain = 0
KPG1 172141Z 10004KT 28/05 A299 RMK A01 T02790054  RH  024%=      5-min Rain = 0
KPG1 172142Z 15007KT 28/05 A299 RMK A01 T02790054  RH  024%=      5-min Rain = 0
KPG1 172143Z 16006KT 28/06 A299 RMK A01 T02810055  RH  024%=      5-min Rain = 0
KPG1 172144Z 10008KT 28/06 A299 RMK A01 T02830055  RH  024%=      5-min Rain = 0
KPG1 172145Z 08008KT 29/05 A299 RMK A01 T02850054  RH  023%=      5-min Rain = 0
KPG1 172146Z 08005KT 28/05 A299 RMK A01 T02800053  RH  024%=      5-min Rain = 0
KPG1 172147Z 09007KT 28/05 A299 RMK A01 T02780054  RH  024%=      5-min Rain = 0
KPG1 172148Z 09006KT 28/06 A299 RMK A01 T02760055  RH  024%=      5-min Rain = 0
KPG1 172149Z 08007KT 28/06 A2989 RMK A01 T02760057  RH  025%=      5-min Rain = 0
KPG1 172150Z 10008KT 28/06 A2989 RMK A01 T02770059  RH  025%=      5-min Rain = 0
KPG1 172151Z 14007KT 28/06 A2989 RMK A01 T02800062  RH  025%=      5-min Rain = 0
KPG1 172152Z 15005KT 28/06 A2989 RMK A01 T02840062  RH  024%=      5-min Rain = 0
KPG1 172153Z 14004KT 29/06 A2989 RMK A01 T02850061  RH  024%=      5-min Rain = 0
KPG1 172154Z 15007KT 28/06 A2989 RMK A01 T02820060  RH  024%=      5-min Rain = 0
KPG1 172155Z 14006KT 28/06 A2989 RMK A01 T02790059  RH  025%=      5-min Rain = 0
KPG1 172156Z 16008KT 28/06 A2989 RMK A01 T02780059  RH  025%=      5-min Rain = 0
KPG1 172157Z 17009KT 28/06 A2989 RMK A01 T02810058  RH  024%=      5-min Rain = 0
KPG1 172158Z 18007KT 28/06 A2989 RMK A01 T02820057  RH  024%=      5-min Rain = 0
KPG1 172159Z 19005KT 28/06 A2989 RMK A01 T02830057  RH  024%=      5-min Rain = 0
KPG1 172200Z 16006KT 29/06 A2989 RMK A01 T02850058  RH  024%=      5-min Rain = 0
KPG1 172201Z 17007KT 29/06 A2989 RMK A01 T02860058  RH  024%=      5-min Rain = 0
KPG1 172202Z 17007KT 29/06 A2989 RMK A01 T02850058  RH  024%=      5-min Rain = 0
KPG1 172203Z 17006KT 28/06 A2989 RMK A01 T02820058  RH  024%=      5-min Rain = 0
KPG1 172204Z 17006KT 28/06 A2989 RMK A01 T02820058  RH  024%=      5-min Rain = 0
KPG1 172205Z 19005KT 28/06 A2989 RMK A01 T02820058  RH  024%=      5-min Rain = 0
KPG1 172206Z 15007KT 28/06 A2989 RMK A01 T02830058  RH  024%=      5-min Rain = 0
KPG1 172207Z 14003KT 28/06 A2989 RMK A01 T02830057  RH  024%=      5-min Rain = 0
KPG1 172208Z 15006KT 28/06 A2989 RMK A01 T02820058  RH  024%=      5-min Rain = 0
KPG1 172209Z 13004KT 28/06 A2989 RMK A01 T02820058  RH  024%=      5-min Rain = 0
KPG1 172210Z 14003KT 28/06 A2989 RMK A01 T02830058  RH  024%=      5-min Rain = 0
KPG1 172211Z 12004KT 29/06 A2989 RMK A01 T02850060  RH  024%=      5-min Rain = 0
KPG1 172212Z 10006KT 29/06 A2989 RMK A01 T02870060  RH  024%=      5-min Rain = 0
KPG1 172213Z 11004KT 29/06 A2989 RMK A01 T02860058  RH  024%=      5-min Rain = 0
KPG1 172214Z 11004KT 28/06 A2989 RMK A01 T02830058  RH  024%=      5-min Rain = 0
KPG1 172215Z 08004KT 28/06 A2989 RMK A01 T02820058  RH  024%=      5-min Rain = 0
KPG1 172216Z 11004KT 28/06 A2989 RMK A01 T02810058  RH  024%=      5-min Rain = 0
KPG1 172217Z 14003KT 28/06 A2989 RMK A01 T02800057  RH  024%=      5-min Rain = 0
KPG1 172218Z 14003KT 28/06 A2989 RMK A01 T02800057  RH  024%=      5-min Rain = 0
KPG1 172219Z 16003KT 28/06 A2989 RMK A01 T02820058  RH  024%=      5-min Rain = 0
KPG1 172220Z 20004KT 28/06 A2988 RMK A01 T02830058  RH  024%=      5-min Rain = 0
KPG1 172221Z 17005KT 29/06 A2988 RMK A01 T02850058  RH  024%=      5-min Rain = 0
KPG1 172222Z 16005KT 29/06 A2988 RMK A01 T02860059  RH  024%=      5-min Rain = 0
KPG1 172223Z 15006KT 29/06 A2988 RMK A01 T02870059  RH  024%=      5-min Rain = 0
KPG1 172224Z 14005KT 29/06 A2988 RMK A01 T02870059  RH  024%=      5-min Rain = 0
KPG1 172225Z 17004KT 29/06 A2988 RMK A01 T02870057  RH  023%=      5-min Rain = 0
KPG1 172226Z 17006G11KT 28/06 A2988 RMK A01 T02840058  RH  024%=      5-min Rain = 0
KPG1 172227Z 17007KT 28/06 A2988 RMK A01 T02840059  RH  024%=      5-min Rain = 0
KPG1 172228Z 21003KT 28/06 A2988 RMK A01 T02820058  RH  024%=      5-min Rain = 0
KPG1 172229Z 24003KT 28/06 A2988 RMK A01 T02800059  RH  025%=      5-min Rain = 0
KPG1 172230Z 14007KT 28/06 A2988 RMK A01 T02810059  RH  024%=      5-min Rain = 0
KPG1 172231Z 13005KT 28/06 A2988 RMK A01 T02820058  RH  024%=      5-min Rain = 0
KPG1 172232Z 13010KT 28/06 A2988 RMK A01 T02810057  RH  024%=      5-min Rain = 0
KPG1 172233Z 11007KT 28/06 A2988 RMK A01 T02790056  RH  024%=      5-min Rain = 0
KPG1 172234Z 13005KT 28/06 A2988 RMK A01 T02760057  RH  025%=      5-min Rain = 0
KPG1 172235Z 11004KT 28/06 A2988 RMK A01 T02760057  RH  025%=      5-min Rain = 0
KPG1 172236Z 13004KT 28/06 A2988 RMK A01 T02780058  RH  025%=      5-min Rain = 0
KPG1 172237Z 16006KT 28/06 A2988 RMK A01 T02810058  RH  024%=      5-min Rain = 0
KPG1 172238Z 18005KT 28/06 A2988 RMK A01 T02810058  RH  024%=      5-min Rain = 0
KPG1 172239Z 20004KT 28/06 A2988 RMK A01 T02820058  RH  024%=      5-min Rain = 0
KPG1 172240Z 18004KT 28/06 A2988 RMK A01 T02820057  RH  024%=      5-min Rain = 0
KPG1 172241Z 19005KT 28/06 A2988 RMK A01 T02820058  RH  024%=      5-min Rain = 0
KPG1 172242Z 17007KT 28/06 A2988 RMK A01 T02830060  RH  024%=      5-min Rain = 0
KPG1 172243Z 20005KT 28/06 A2988 RMK A01 T02830059  RH  024%=      5-min Rain = 0
KPG1 172244Z 18004KT 28/06 A2988 RMK A01 T02820059  RH  024%=      5-min Rain = 0
KPG1 172245Z 19003KT 28/06 A2988 RMK A01 T02840060  RH  024%=      5-min Rain = 0
KPG1 172246Z 17003KT 29/06 A2988 RMK A01 T02860060  RH  024%=      5-min Rain = 0
KPG1 172247Z 16007KT 29/06 A2988 RMK A01 T02870058  RH  024%=      5-min Rain = 0
KPG1 172248Z 16009KT 29/06 A2988 RMK A01 T02850057  RH  024%=      5-min Rain = 0
KPG1 172249Z 17009KT 28/06 A2988 RMK A01 T02830057  RH  024%=      5-min Rain = 0
KPG1 172250Z 19007KT 28/06 A2988 RMK A01 T02810057  RH  024%=      5-min Rain = 0
KPG1 172251Z 18008KT 28/06 A2988 RMK A01 T02800057  RH  024%=      5-min Rain = 0
KPG1 172252Z 16005KT 28/06 A2988 RMK A01 T02800056  RH  024%=      5-min Rain = 0
KPG1 172253Z 16004KT 28/06 A2988 RMK A01 T02790057  RH  024%=      5-min Rain = 0
KPG1 172254Z 16004KT 28/06 A2988 RMK A01 T02780057  RH  024%=      5-min Rain = 0
KPG1 172255Z 17005KT 28/06 A2988 RMK A01 T02790057  RH  024%=      5-min Rain = 0
KPG1 172256Z 18004KT 28/06 A2988 RMK A01 T02800055  RH  024%=      5-min Rain = 0
KPG1 172257Z 18004KT 28/06 A2988 RMK A01 T02800055  RH  024%=      5-min Rain = 0
KPG1 172258Z 15006KT 28/06 A2988 RMK A01 T02810056  RH  024%=      5-min Rain = 0
KPG1 172259Z 16008KT 28/06 A2988 RMK A01 T02800056  RH  024%=      5-min Rain = 0
KPG1 172300Z 15007KT 28/06 A2988 RMK A01 T02810057  RH  024%=      5-min Rain = 0
KPG1 172301Z 14006KT 28/06 A2988 RMK A01 T02820057  RH  024%=      5-min Rain = 0
KPG1 172302Z 14006KT 28/06 A2988 RMK A01 T02800057  RH  024%=      5-min Rain = 0
KPG1 172303Z 12005KT 28/06 A2988 RMK A01 T02780056  RH  024%=      5-min Rain = 0
KPG1 172304Z 09005KT 28/06 A2988 RMK A01 T02770056  RH  025%=      5-min Rain = 0
KPG1 172305Z 10007KT 28/06 A2988 RMK A01 T02770058  RH  025%=      5-min Rain = 0
KPG1 172306Z 12006KT 28/06 A2988 RMK A01 T02760057  RH  025%=      5-min Rain = 0
KPG1 172307Z 10003KT 28/06 A2988 RMK A01 T02750055  RH  025%=      5-min Rain = 0
KPG1 172308Z 12005KT 27/06 A2987 RMK A01 T02740055  RH  025%=      5-min Rain = 0
KPG1 172309Z 12005KT 27/06 A2987 RMK A01 T02740057  RH  025%=      5-min Rain = 0
KPG1 172310Z 11004KT 27/06 A2987 RMK A01 T02740058  RH  025%=      5-min Rain = 0
KPG1 172311Z 11005KT 27/06 A2987 RMK A01 T02740057  RH  025%=      5-min Rain = 0
KPG1 172312Z 08002KT 27/06 A2987 RMK A01 T02740055  RH  025%=      5-min Rain = 0
KPG1 172313Z 05002KT 27/05 A2987 RMK A01 T02740054  RH  025%=      5-min Rain = 0
KPG1 172314Z 09001KT 27/05 A2987 RMK A01 T02740054  RH  025%=      5-min Rain = 0
KPG1 172315Z 09003KT 27/05 A2987 RMK A01 T02740054  RH  024%=      5-min Rain = 0
KPG1 172316Z 09003KT 27/05 A2987 RMK A01 T02740053  RH  024%=      5-min Rain = 0
KPG1 172317Z 11003KT 28/05 A2987 RMK A01 T02750053  RH  024%=      5-min Rain = 0
KPG1 172318Z 16007KT 28/05 A2987 RMK A01 T02760054  RH  024%=      5-min Rain = 0
KPG1 172319Z 14007KT 28/05 A2987 RMK A01 T02770052  RH  024%=      5-min Rain = 0
KPG1 172320Z 13005KT 28/05 A2987 RMK A01 T02770050  RH  024%=      5-min Rain = 0
KPG1 172321Z 12003KT 28/05 A2987 RMK A01 T02760051  RH  024%=      5-min Rain = 0
KPG1 172322Z 10005KT 28/05 A2987 RMK A01 T02770051  RH  024%=      5-min Rain = 0
KPG1 172323Z 08004KT 28/05 A2987 RMK A01 T02770051  RH  024%=      5-min Rain = 0
KPG1 172324Z 11003KT 28/05 A2987 RMK A01 T02760052  RH  024%=      5-min Rain = 0
KPG1 172325Z 14003KT 28/05 A2987 RMK A01 T02750053  RH  024%=      5-min Rain = 0
KPG1 172326Z 16003KT 28/05 A2987 RMK A01 T02750054  RH  024%=      5-min Rain = 0
KPG1 172327Z 17004KT 28/06 A2987 RMK A01 T02760056  RH  025%=      5-min Rain = 0
KPG1 172328Z 18006KT 28/06 A2986 RMK A01 T02770056  RH  025%=      5-min Rain = 0
KPG1 172329Z 16006KT 28/05 A2986 RMK A01 T02770053  RH  024%=      5-min Rain = 0
KPG1 172330Z 15003KT 28/05 A2986 RMK A01 T02770052  RH  024%=      5-min Rain = 0
KPG1 172331Z 14003KT 28/05 A2986 RMK A01 T02760051  RH  024%=      5-min Rain = 0
KPG1 172332Z 14005KT 28/06 A2986 RMK A01 T02760055  RH  024%=      5-min Rain = 0
KPG1 172333Z 12006KT 28/05 A2986 RMK A01 T02760053  RH  024%=      5-min Rain = 0
KPG1 172334Z 12005KT 28/05 A2986 RMK A01 T02760051  RH  024%=      5-min Rain = 0
KPG1 172335Z 13006KT 28/05 A2986 RMK A01 T02750048  RH  024%=      5-min Rain = 0
KPG1 172336Z 14005KT 27/05 A2986 RMK A01 T02740049  RH  024%=      5-min Rain = 0
KPG1 172337Z 15006KT 27/05 A2986 RMK A01 T02730048  RH  024%=      5-min Rain = 0
KPG1 172338Z 14006KT 27/05 A2986 RMK A01 T02740048  RH  024%=      5-min Rain = 0
KPG1 172339Z 12004KT 27/05 A2986 RMK A01 T02740047  RH  023%=      5-min Rain = 0
KPG1 172340Z 10004KT 27/05 A2986 RMK A01 T02740047  RH  023%=      5-min Rain = 0
KPG1 172341Z 14005KT 27/05 A2986 RMK A01 T02740047  RH  023%=      5-min Rain = 0
KPG1 172342Z 16006KT 27/05 A2986 RMK A01 T02740049  RH  024%=      5-min Rain = 0
KPG1 172343Z 15007KT 27/05 A2986 RMK A01 T02740049  RH  024%=      5-min Rain = 0
KPG1 172344Z 15007KT 27/05 A2986 RMK A01 T02740049  RH  024%=      5-min Rain = 0
KPG1 172345Z 16005KT 27/05 A2986 RMK A01 T02730048  RH  024%=      5-min Rain = 0
KPG1 172346Z 16006KT 27/05 A2986 RMK A01 T02730051  RH  024%=      5-min Rain = 0
KPG1 172347Z 16005KT 27/06 A2986 RMK A01 T02730056  RH  025%=      5-min Rain = 0
KPG1 172348Z 16003KT 27/06 A2986 RMK A01 T02720057  RH  025%=      5-min Rain = 0
KPG1 172349Z 15003KT 27/06 A2987 RMK A01 T02720057  RH  025%=      5-min Rain = 0
KPG1 172350Z 17003KT 27/06 A2987 RMK A01 T02720057  RH  025%=      5-min Rain = 0
KPG1 172351Z 17004KT 27/06 A2987 RMK A01 T02720058  RH  025%=      5-min Rain = 0
KPG1 172352Z 17005KT 27/06 A2987 RMK A01 T02720058  RH  026%=      5-min Rain = 0
KPG1 172353Z 17004KT 27/06 A2987 RMK A01 T02720059  RH  026%=      5-min Rain = 0
KPG1 172354Z 17004KT 27/06 A2987 RMK A01 T02710059  RH  026%=      5-min Rain = 0
KPG1 172355Z 16003KT 27/06 A2987 RMK A01 T02700059  RH  026%=      5-min Rain = 0
KPG1 172356Z 17004KT 27/06 A2987 RMK A01 T02700060  RH  026%=      5-min Rain = 0
KPG1 172357Z 17003KT 27/06 A2987 RMK A01 T02700059  RH  026%=      5-min Rain = 0
KPG1 172358Z 14004KT 27/06 A2987 RMK A01 T02700057  RH  026%=      5-min Rain = 0
KPG1 172359Z 14004KT 27/06 A2987 RMK A01 T02700055  RH  025%=      5-min Rain = 0
KPG1 180000Z 15005KT 27/06 A2987 RMK A01 T02700055  RH  025%=      5-min Rain = 0
KPG1 180001Z 15004KT 27/06 A2987 RMK A01 T02690055  RH  025%=      5-min Rain = 0
KPG1 180002Z 14004KT 27/05 A2987 RMK A01 T02680053  RH  025%=      5-min Rain = 0
KPG1 180003Z 13003KT 27/05 A2987 RMK A01 T02680050  RH  025%=      5-min Rain = 0
KPG1 180004Z 13002KT 27/05 A2987 RMK A01 T02680048  RH  024%=      5-min Rain = 0
KPG1 180005Z 13001KT 27/05 A2987 RMK A01 T02680047  RH  024%=      5-min Rain = 0
KPG1 180006Z 12002KT 27/05 A2986 RMK A01 T02680046  RH  024%=      5-min Rain = 0
KPG1 180007Z 09003KT 27/05 A2986 RMK A01 T02680046  RH  024%=      5-min Rain = 0
KPG1 180008Z 08004KT 27/04 A2986 RMK A01 T02660043  RH  024%=      5-min Rain = 0
KPG1 180009Z 08004KT 27/04 A2986 RMK A01 T02650042  RH  024%=      5-min Rain = 0
KPG1 180010Z 08005KT 26/04 A2986 RMK A01 T02640042  RH  024%=      5-min Rain = 0
KPG1 180011Z 08005KT 26/04 A2986 RMK A01 T02630042  RH  024%=      5-min Rain = 0
KPG1 180012Z 13003KT 26/04 A2986 RMK A01 T02620044  RH  025%=      5-min Rain = 0
KPG1 180013Z 13003KT 26/04 A2986 RMK A01 T02620044  RH  025%=      5-min Rain = 0
KPG1 180014Z 13005KT 26/05 A2986 RMK A01 T02620045  RH  025%=      5-min Rain = 0
KPG1 180015Z 13005KT 26/04 A2987 RMK A01 T02620044  RH  025%=      5-min Rain = 0
KPG1 180016Z 13005KT 26/04 A2987 RMK A01 T02620043  RH  025%=      5-min Rain = 0
KPG1 180017Z 13005KT 26/04 A2987 RMK A01 T02620043  RH  024%=      5-min Rain = 0
KPG1 180018Z 12005KT 26/04 A2987 RMK A01 T02620042  RH  024%=      5-min Rain = 0
KPG1 180019Z 12004KT 26/04 A2987 RMK A01 T02620042  RH  024%=      5-min Rain = 0
KPG1 180020Z 11005KT 26/04 A2987 RMK A01 T02620043  RH  024%=      5-min Rain = 0
KPG1 180021Z 10006KT 26/04 A2986 RMK A01 T02620043  RH  024%=      5-min Rain = 0
KPG1 180022Z 11006KT 26/04 A2986 RMK A01 T02620043  RH  024%=      5-min Rain = 0
KPG1 180023Z 10004KT 26/04 A2986 RMK A01 T02620044  RH  025%=      5-min Rain = 0
KPG1 180024Z 09005KT 26/04 A2986 RMK A01 T02620044  RH  025%=      5-min Rain = 0
KPG1 180025Z 10004KT 26/04 A2986 RMK A01 T02620044  RH  025%=      5-min Rain = 0
KPG1 180026Z 10003KT 26/04 A2986 RMK A01 T02620044  RH  025%=      5-min Rain = 0
KPG1 180027Z 10003KT 26/04 A2986 RMK A01 T02620044  RH  025%=      5-min Rain = 0
KPG1 180028Z 09004KT 26/04 A2986 RMK A01 T02610044  RH  025%=      5-min Rain = 0
KPG1 180029Z 09004KT 26/04 A2986 RMK A01 T02580043  RH  025%=      5-min Rain = 0
KPG1 180030Z 10004KT 26/04 A2986 RMK A01 T02560043  RH  025%=      5-min Rain = 0
KPG1 180031Z 10006KT 26/04 A2986 RMK A01 T02550043  RH  026%=      5-min Rain = 0
KPG1 180032Z 10006KT 25/04 A2986 RMK A01 T02540044  RH  026%=      5-min Rain = 0
KPG1 180033Z 10006KT 26/04 A2986 RMK A01 T02560044  RH  026%=      5-min Rain = 0
KPG1 180034Z 10006KT 26/04 A2986 RMK A01 T02570044  RH  025%=      5-min Rain = 0
KPG1 180035Z 09006KT 26/05 A2986 RMK A01 T02570045  RH  025%=      5-min Rain = 0
KPG1 180036Z 09006KT 26/05 A2986 RMK A01 T02570045  RH  025%=      5-min Rain = 0
KPG1 180037Z 10006KT 26/05 A2986 RMK A01 T02570045  RH  025%=      5-min Rain = 0
KPG1 180038Z 10005KT 26/05 A2986 RMK A01 T02570045  RH  026%=      5-min Rain = 0
KPG1 180039Z 10004KT 26/05 A2986 RMK A01 T02570045  RH  026%=      5-min Rain = 0
KPG1 180040Z 11005KT 26/05 A2986 RMK A01 T02570045  RH  026%=      5-min Rain = 0
KPG1 180041Z 11004KT 26/05 A2986 RMK A01 T02560045  RH  026%=      5-min Rain = 0
KPG1 180042Z 11004KT 26/05 A2986 RMK A01 T02560045  RH  026%=      5-min Rain = 0
KPG1 180043Z 10004KT 26/05 A2986 RMK A01 T02570045  RH  026%=      5-min Rain = 0
KPG1 180044Z 10004KT 26/05 A2987 RMK A01 T02560045  RH  026%=      5-min Rain = 0
KPG1 180045Z 10004KT 25/05 A2987 RMK A01 T02540045  RH  026%=      5-min Rain = 0
KPG1 180046Z 10005KT 25/05 A2987 RMK A01 T02530045  RH  026%=      5-min Rain = 0
KPG1 180047Z 10005KT 25/05 A2987 RMK A01 T02530046  RH  026%=      5-min Rain = 0
KPG1 180048Z 09004KT 25/05 A2987 RMK A01 T02520045  RH  026%=      5-min Rain = 0
KPG1 180049Z 09004KT 25/05 A2987 RMK A01 T02510045  RH  026%=      5-min Rain = 0
KPG1 180050Z 10004KT 25/05 A2987 RMK A01 T02490045  RH  027%=      5-min Rain = 0
KPG1 180051Z 10005KT 25/05 A2987 RMK A01 T02480045  RH  027%=      5-min Rain = 0
KPG1 180052Z 10005KT 25/05 A2987 RMK A01 T02480045  RH  027%=      5-min Rain = 0
KPG1 180053Z 10004KT 25/05 A2987 RMK A01 T02480046  RH  027%=      5-min Rain = 0
KPG1 180054Z 10005KT 25/05 A2987 RMK A01 T02470046  RH  027%=      5-min Rain = 0
KPG1 180055Z 11005KT 25/05 A2987 RMK A01 T02460045  RH  027%=      5-min Rain = 0
KPG1 180056Z 10004KT 25/05 A2987 RMK A01 T02450046  RH  027%=      5-min Rain = 0
KPG1 180057Z 09004KT 24/05 A2987 RMK A01 T02440045  RH  028%=      5-min Rain = 0
KPG1 180058Z 09005KT 24/04 A2987 RMK A01 T02420044  RH  028%=      5-min Rain = 0
KPG1 180059Z 10004KT 24/05 A2987 RMK A01 T02410045  RH  028%=      5-min Rain = 0
KPG1 180100Z 10005KT 24/05 A2987 RMK A01 T02410045  RH  028%=      5-min Rain = 0
KPG1 180101Z 11006KT 24/05 A2987 RMK A01 T02400046  RH  028%=      5-min Rain = 0
KPG1 180102Z 11007KT 24/05 A2987 RMK A01 T02420048  RH  029%=      5-min Rain = 0
KPG1 180103Z 10006KT 25/05 A2987 RMK A01 T02470050  RH  028%=      5-min Rain = 0
KPG1 180104Z 09006KT 25/05 A2987 RMK A01 T02500053  RH  028%=      5-min Rain = 0
KPG1 180105Z 10004KT 25/05 A2987 RMK A01 T02510053  RH  028%=      5-min Rain = 0
KPG1 180106Z 10003KT 25/05 A2987 RMK A01 T02520052  RH  028%=      5-min Rain = 0
KPG1 180107Z 11003KT 25/05 A2987 RMK A01 T02500049  RH  027%=      5-min Rain = 0
KPG1 180108Z 12003KT 25/05 A2987 RMK A01 T02470048  RH  028%=      5-min Rain = 0
KPG1 180109Z 13003KT 25/05 A2987 RMK A01 T02450047  RH  028%=      5-min Rain = 0
KPG1 180110Z 15002KT 24/05 A2987 RMK A01 T02440048  RH  028%=      5-min Rain = 0
KPG1 180111Z 13002KT 24/05 A2987 RMK A01 T02430048  RH  028%=      5-min Rain = 0
KPG1 180112Z 13002KT 24/05 A2987 RMK A01 T02430048  RH  028%=      5-min Rain = 0
KPG1 180113Z 12002KT 24/05 A2987 RMK A01 T02430048  RH  028%=      5-min Rain = 0
KPG1 180114Z 12001KT 24/05 A2988 RMK A01 T02430048  RH  028%=      5-min Rain = 0
KPG1 180115Z 11001KT 24/05 A2988 RMK A01 T02430049  RH  029%=      5-min Rain = 0
KPG1 180116Z 12002KT 24/05 A2988 RMK A01 T02430052  RH  029%=      5-min Rain = 0
KPG1 180117Z 12004KT 24/05 A2988 RMK A01 T02440052  RH  029%=      5-min Rain = 0
KPG1 180118Z 13003KT 24/06 A2988 RMK A01 T02440056  RH  030%=      5-min Rain = 0
KPG1 180119Z 12003KT 24/06 A2988 RMK A01 T02440057  RH  030%=      5-min Rain = 0
KPG1 180120Z 13004KT 24/06 A2988 RMK A01 T02440060  RH  031%=      5-min Rain = 0
KPG1 180121Z 13004KT 24/06 A2988 RMK A01 T02440060  RH  031%=      5-min Rain = 0
KPG1 180122Z 13005KT 24/06 A2988 RMK A01 T02440064  RH  031%=      5-min Rain = 0
KPG1 180123Z 13005KT 24/07 A2988 RMK A01 T02430066  RH  032%=      5-min Rain = 0
KPG1 180124Z 14005KT 24/07 A2988 RMK A01 T02440068  RH  032%=      5-min Rain = 0
KPG1 180125Z 15004KT 24/07 A2988 RMK A01 T02440068  RH  032%=      5-min Rain = 0
KPG1 180126Z 14005KT 24/07 A2988 RMK A01 T02430066  RH  032%=      5-min Rain = 0
KPG1 180127Z 12005KT 24/07 A2988 RMK A01 T02420068  RH  033%=      5-min Rain = 0
KPG1 180128Z 11004KT 24/07 A2988 RMK A01 T02430069  RH  033%=      5-min Rain = 0
KPG1 180129Z 11005KT 24/07 A2988 RMK A01 T02430069  RH  033%=      5-min Rain = 0
KPG1 180130Z 12004KT 24/07 A2988 RMK A01 T02430069  RH  033%=      5-min Rain = 0
KPG1 180131Z 12005KT 24/07 A2988 RMK A01 T02430069  RH  033%=      5-min Rain = 0
KPG1 180132Z 11005KT 24/07 A2988 RMK A01 T02430069  RH  033%=      5-min Rain = 0
KPG1 180133Z 11003KT 24/07 A2988 RMK A01 T02430069  RH  033%=      5-min Rain = 0
KPG1 180134Z 11005KT 24/07 A2988 RMK A01 T02430069  RH  033%=      5-min Rain = 0
KPG1 180135Z 11006KT 24/07 A2988 RMK A01 T02430069  RH  033%=      5-min Rain = 0
KPG1 180136Z 12006KT 24/07 A2988 RMK A01 T02430068  RH  033%=      5-min Rain = 0
KPG1 180137Z 11005KT 24/07 A2988 RMK A01 T02430067  RH  032%=      5-min Rain = 0
KPG1 180138Z 11005KT 24/07 A2988 RMK A01 T02440067  RH  032%=      5-min Rain = 0
KPG1 180139Z 11005KT 24/07 A2988 RMK A01 T02440066  RH  032%=      5-min Rain = 0
KPG1 180140Z 11005KT 25/07 A2988 RMK A01 T02450065  RH  032%=      5-min Rain = 0
KPG1 180141Z 12005KT 25/07 A2988 RMK A01 T02450065  RH  031%=      5-min Rain = 0
KPG1 180142Z 13004KT 25/07 A2988 RMK A01 T02450065  RH  031%=      5-min Rain = 0
KPG1 180143Z 14004KT 25/06 A2988 RMK A01 T02450064  RH  031%=      5-min Rain = 0
KPG1 180144Z 13003KT 25/06 A2988 RMK A01 T02450064  RH  031%=      5-min Rain = 0
KPG1 180145Z 13005KT 25/07 A2988 RMK A01 T02450065  RH  031%=      5-min Rain = 0
KPG1 180146Z 13005KT 25/07 A2988 RMK A01 T02450065  RH  031%=      5-min Rain = 0
KPG1 180147Z 14003KT 25/06 A2988 RMK A01 T02450064  RH  031%=      5-min Rain = 0
KPG1 180148Z 12003KT 24/06 A2988 RMK A01 T02440064  RH  031%=      5-min Rain = 0
KPG1 180149Z 13003KT 24/06 A2988 RMK A01 T02440064  RH  032%=      5-min Rain = 0
KPG1 180150Z 13005KT 24/06 A2988 RMK A01 T02430064  RH  032%=      5-min Rain = 0
KPG1 180151Z 14005KT 24/06 A2988 RMK A01 T02420064  RH  032%=      5-min Rain = 0
KPG1 180152Z 13003KT 24/06 A2988 RMK A01 T02420064  RH  032%=      5-min Rain = 0
KPG1 180153Z 11004KT 24/06 A2988 RMK A01 T02420064  RH  032%=      5-min Rain = 0
KPG1 180154Z 12006KT 24/07 A2988 RMK A01 T02420065  RH  032%=      5-min Rain = 0
KPG1 180155Z 14004KT 24/07 A2988 RMK A01 T02420065  RH  032%=      5-min Rain = 0
KPG1 180156Z 12003KT 24/06 A2988 RMK A01 T02430064  RH  032%=      5-min Rain = 0
KPG1 180157Z 12003KT 24/07 A2988 RMK A01 T02430065  RH  032%=      5-min Rain = 0
KPG1 180158Z 12003KT 24/07 A2988 RMK A01 T02420065  RH  032%=      5-min Rain = 0
KPG1 180159Z 12004KT 24/06 A2988 RMK A01 T02420064  RH  032%=      5-min Rain = 0
KPG1 180200Z 13003KT 24/07 A2988 RMK A01 T02420065  RH  032%=      5-min Rain = 0
KPG1 180201Z 13003KT 24/07 A2988 RMK A01 T02420065  RH  032%=      5-min Rain = 0
KPG1 180202Z 13002KT 24/07 A2988 RMK A01 T02420065  RH  032%=      5-min Rain = 0
KPG1 180203Z 13002KT 24/06 A2988 RMK A01 T02410064  RH  032%=      5-min Rain = 0
KPG1 180204Z 12002KT 24/07 A2988 RMK A01 T02410065  RH  032%=      5-min Rain = 0
KPG1 180205Z 13002KT 24/06 A2988 RMK A01 T02410064  RH  032%=      5-min Rain = 0
KPG1 180206Z 12002KT 24/06 A2988 RMK A01 T02400064  RH  032%=      5-min Rain = 0
KPG1 180207Z 11002KT 24/06 A2989 RMK A01 T02390064  RH  032%=      5-min Rain = 0
KPG1 180208Z 10002KT 24/06 A2989 RMK A01 T02380064  RH  032%=      5-min Rain = 0
KPG1 180209Z 10003KT 24/06 A2989 RMK A01 T02370063  RH  033%=      5-min Rain = 0
KPG1 180210Z 10003KT 24/06 A2989 RMK A01 T02350063  RH  033%=      5-min Rain = 0
KPG1 180211Z 10003KT 23/06 A2989 RMK A01 T02340063  RH  033%=      5-min Rain = 0
KPG1 180212Z 09003KT 23/06 A2989 RMK A01 T02330063  RH  033%=      5-min Rain = 0
KPG1 180213Z 09004KT 23/06 A2989 RMK A01 T02330063  RH  033%=      5-min Rain = 0
KPG1 180214Z 06002KT 23/06 A2989 RMK A01 T02320062  RH  033%=      5-min Rain = 0
KPG1 180215Z 04003KT 23/06 A2989 RMK A01 T02310063  RH  034%=      5-min Rain = 0
KPG1 180216Z 04004KT 23/06 A2989 RMK A01 T02280061  RH  034%=      5-min Rain = 0
KPG1 180217Z 04006KT 22/06 A2989 RMK A01 T02240060  RH  035%=      5-min Rain = 0
KPG1 180218Z 01009KT 22/06 A2989 RMK A01 T02210060  RH  035%=      5-min Rain = 0
KPG1 180219Z 00010KT 22/06 A2989 RMK A01 T02210061  RH  035%=      5-min Rain = 0
KPG1 180220Z 00011KT 22/06 A2989 RMK A01 T02210062  RH  036%=      5-min Rain = 0
KPG1 180221Z 00010KT 22/06 A2989 RMK A01 T02210063  RH  036%=      5-min Rain = 0
KPG1 180222Z 36009KT 22/06 A2989 RMK A01 T02210063  RH  036%=      5-min Rain = 0
KPG1 180223Z 01010KT 22/07 A2989 RMK A01 T02210065  RH  036%=      5-min Rain = 0
KPG1 180224Z 01009KT 22/07 A2989 RMK A01 T02210066  RH  037%=      5-min Rain = 0
KPG1 180225Z 00010KT 22/07 A2989 RMK A01 T02210066  RH  037%=      5-min Rain = 0
KPG1 180226Z 01009KT 22/07 A2989 RMK A01 T02210067  RH  037%=      5-min Rain = 0
KPG1 180227Z 01009KT 22/07 A2989 RMK A01 T02220068  RH  037%=      5-min Rain = 0
KPG1 180228Z 00010KT 22/07 A2989 RMK A01 T02230069  RH  037%=      5-min Rain = 0
KPG1 180229Z 01010KT 22/07 A299 RMK A01 T02230069  RH  037%=      5-min Rain = 0
KPG1 180230Z 02008KT 22/07 A299 RMK A01 T02230069  RH  037%=      5-min Rain = 0
KPG1 180231Z 01010KT 22/07 A299 RMK A01 T02230070  RH  037%=      5-min Rain = 0
KPG1 180232Z 01010KT 22/07 A299 RMK A01 T02230071  RH  037%=      5-min Rain = 0
KPG1 180233Z 02009KT 22/07 A299 RMK A01 T02230071  RH  038%=      5-min Rain = 0
KPG1 180234Z 01009KT 22/07 A299 RMK A01 T02230072  RH  038%=      5-min Rain = 0
KPG1 180235Z 01009KT 22/07 A299 RMK A01 T02230072  RH  038%=      5-min Rain = 0
KPG1 180236Z 01010KT 22/07 A299 RMK A01 T02230073  RH  038%=      5-min Rain = 0
KPG1 180237Z 02010KT 22/07 A299 RMK A01 T02230073  RH  038%=      5-min Rain = 0
KPG1 180238Z 03009KT 22/07 A299 RMK A01 T02230073  RH  038%=      5-min Rain = 0
KPG1 180239Z 03008KT 22/07 A299 RMK A01 T02240073  RH  038%=      5-min Rain = 0
KPG1 180240Z 01008KT 22/07 A299 RMK A01 T02230073  RH  038%=      5-min Rain = 0
KPG1 180241Z 01009KT 22/07 A299 RMK A01 T02220074  RH  038%=      5-min Rain = 0
KPG1 180242Z 01009KT 22/08 A299 RMK A01 T02220076  RH  039%=      5-min Rain = 0
KPG1 180243Z 02009KT 22/08 A299 RMK A01 T02210076  RH  039%=      5-min Rain = 0
KPG1 180244Z 01010KT 22/08 A299 RMK A01 T02210077  RH  039%=      5-min Rain = 0
KPG1 180245Z 02010KT 22/08 A299 RMK A01 T02220080  RH  040%=      5-min Rain = 0
KPG1 180246Z 02009KT 22/08 A299 RMK A01 T02220081  RH  040%=      5-min Rain = 0
KPG1 180247Z 02008KT 22/08 A299 RMK A01 T02210080  RH  040%=      5-min Rain = 0
KPG1 180248Z 02009KT 22/08 A299 RMK A01 T02220080  RH  040%=      5-min Rain = 0
KPG1 180249Z 02009KT 22/08 A299 RMK A01 T02220081  RH  040%=      5-min Rain = 0
KPG1 180250Z 02009KT 22/08 A299 RMK A01 T02210081  RH  040%=      5-min Rain = 0
KPG1 180251Z 02008KT 22/08 A299 RMK A01 T02210081  RH  040%=      5-min Rain = 0
KPG1 180252Z 03009KT 22/08 A299 RMK A01 T02210082  RH  041%=      5-min Rain = 0
KPG1 180253Z 03009KT 22/08 A299 RMK A01 T02210082  RH  041%=      5-min Rain = 0
KPG1 180254Z 03008KT 22/08 A299 RMK A01 T02200082  RH  041%=      5-min Rain = 0
KPG1 180255Z 02009KT 22/08 A299 RMK A01 T02200082  RH  041%=      5-min Rain = 0
KPG1 180256Z 01010KT 22/08 A299 RMK A01 T02200083  RH  041%=      5-min Rain = 0
KPG1 180257Z 02010KT 22/09 A299 RMK A01 T02200085  RH  042%=      5-min Rain = 0
KPG1 180258Z 01009KT 22/09 A299 RMK A01 T02200087  RH  043%=      5-min Rain = 0
KPG1 180259Z 02009KT 22/09 A299 RMK A01 T02200087  RH  043%=      5-min Rain = 0
KPG1 180300Z 01010KT 22/09 A299 RMK A01 T02190087  RH  043%=      5-min Rain = 0
KPG1 180301Z 01011KT 22/09 A299 RMK A01 T02180087  RH  043%=      5-min Rain = 0
KPG1 180302Z 02010KT 22/09 A299 RMK A01 T02180086  RH  043%=      5-min Rain = 0
KPG1 180303Z 03010KT 22/09 A299 RMK A01 T02190087  RH  043%=      5-min Rain = 0
KPG1 180304Z 02010KT 22/09 A299 RMK A01 T02190087  RH  043%=      5-min Rain = 0
KPG1 180305Z 01011KT 22/09 A299 RMK A01 T02180088  RH  043%=      5-min Rain = 0
KPG1 180306Z 02011KT 22/09 A299 RMK A01 T02180088  RH  043%=      5-min Rain = 0
KPG1 180307Z 02011KT 22/09 A299 RMK A01 T02180089  RH  044%=      5-min Rain = 0
KPG1 180308Z 01012KT 22/09 A299 RMK A01 T02170089  RH  044%=      5-min Rain = 0
KPG1 180309Z 01012KT 22/09 A299 RMK A01 T02170089  RH  044%=      5-min Rain = 0
KPG1 180310Z 01012KT 22/09 A299 RMK A01 T02170090  RH  044%=      5-min Rain = 0
KPG1 180311Z 01011KT 22/09 A299 RMK A01 T02170090  RH  044%=      5-min Rain = 0
KPG1 180312Z 01012KT 22/09 A299 RMK A01 T02170091  RH  044%=      5-min Rain = 0
KPG1 180313Z 01010KT 22/09 A299 RMK A01 T02170092  RH  045%=      5-min Rain = 0
KPG1 180314Z 01011KT 22/09 A299 RMK A01 T02170092  RH  045%=      5-min Rain = 0
KPG1 180315Z 02010KT 22/09 A299 RMK A01 T02160093  RH  045%=      5-min Rain = 0
KPG1 180316Z 02012KT 22/09 A299 RMK A01 T02150093  RH  046%=      5-min Rain = 0
KPG1 180317Z 02011KT 22/09 A299 RMK A01 T02150093  RH  046%=      5-min Rain = 0
KPG1 180318Z 01010KT 22/09 A2991 RMK A01 T02150093  RH  046%=      5-min Rain = 0
KPG1 180319Z 02011KT 22/09 A2991 RMK A01 T02150094  RH  046%=      5-min Rain = 0
KPG1 180320Z 02012KT 21/09 A2991 RMK A01 T02140094  RH  046%=      5-min Rain = 0
KPG1 180321Z 02013KT 21/10 A2991 RMK A01 T02130095  RH  047%=      5-min Rain = 0
KPG1 180322Z 02013KT 21/10 A2991 RMK A01 T02130095  RH  047%=      5-min Rain = 0
KPG1 180323Z 02012KT 21/10 A2991 RMK A01 T02130095  RH  047%=      5-min Rain = 0
KPG1 180324Z 01013KT 21/10 A2991 RMK A01 T02130096  RH  047%=      5-min Rain = 0
KPG1 180325Z 02013KT 21/10 A2991 RMK A01 T02130096  RH  047%=      5-min Rain = 0
KPG1 180326Z 02011KT 21/10 A2991 RMK A01 T02130096  RH  047%=      5-min Rain = 0
KPG1 180327Z 02013KT 21/10 A2991 RMK A01 T02120095  RH  047%=      5-min Rain = 0
KPG1 180328Z 02013KT 21/10 A2991 RMK A01 T02120096  RH  048%=      5-min Rain = 0
KPG1 180329Z 02012KT 21/10 A2991 RMK A01 T02120097  RH  048%=      5-min Rain = 0
KPG1 180330Z 02013KT 21/10 A299 RMK A01 T02120097  RH  048%=      5-min Rain = 0
KPG1 180331Z 01012KT 21/10 A299 RMK A01 T02120097  RH  048%=      5-min Rain = 0
KPG1 180332Z 02012KT 21/10 A299 RMK A01 T02120098  RH  048%=      5-min Rain = 0
KPG1 180333Z 02013KT 21/10 A2991 RMK A01 T02120098  RH  048%=      5-min Rain = 0
KPG1 180334Z 03012KT 21/10 A2991 RMK A01 T02110098  RH  048%=      5-min Rain = 0
KPG1 180335Z 01011KT 21/10 A2991 RMK A01 T02100097  RH  048%=      5-min Rain = 0
KPG1 180336Z 02012KT 21/10 A2991 RMK A01 T02100097  RH  048%=      5-min Rain = 0
KPG1 180337Z 01013KT 21/10 A2991 RMK A01 T02090098  RH  049%=      5-min Rain = 0
KPG1 180338Z 02011KT 21/10 A2991 RMK A01 T02100098  RH  049%=      5-min Rain = 0
KPG1 180339Z 02012KT 21/10 A2991 RMK A01 T02100098  RH  049%=      5-min Rain = 0
KPG1 180340Z 02013KT 21/10 A2991 RMK A01 T02100099  RH  049%=      5-min Rain = 0
KPG1 180341Z 02014KT 21/10 A2991 RMK A01 T02100099  RH  049%=      5-min Rain = 0
KPG1 180342Z 02013KT 21/10 A2991 RMK A01 T02100100  RH  049%=      5-min Rain = 0
KPG1 180343Z 02013KT 21/10 A2991 RMK A01 T02090100  RH  049%=      5-min Rain = 0
KPG1 180344Z 02012KT 21/10 A2991 RMK A01 T02090100  RH  050%=      5-min Rain = 0
KPG1 180345Z 01012KT 21/10 A2991 RMK A01 T02090100  RH  050%=      5-min Rain = 0
KPG1 180346Z 01012KT 21/10 A2991 RMK A01 T02090100  RH  050%=      5-min Rain = 0
KPG1 180347Z 02012KT 21/10 A2991 RMK A01 T02080101  RH  050%=      5-min Rain = 0
KPG1 180348Z 02013KT 21/10 A2991 RMK A01 T02080101  RH  050%=      5-min Rain = 0
KPG1 180349Z 02013KT 21/10 A2991 RMK A01 T02080101  RH  050%=      5-min Rain = 0
KPG1 180350Z 02013KT 21/10 A2991 RMK A01 T02080101  RH  050%=      5-min Rain = 0
KPG1 180351Z 02013KT 21/10 A2991 RMK A01 T02080102  RH  051%=      5-min Rain = 0
KPG1 180352Z 01013KT 21/10 A2991 RMK A01 T02080102  RH  051%=      5-min Rain = 0
KPG1 180353Z 01011KT 21/10 A2991 RMK A01 T02080102  RH  051%=      5-min Rain = 0
KPG1 180354Z 01013KT 21/10 A2991 RMK A01 T02070102  RH  051%=      5-min Rain = 0
KPG1 180355Z 01013KT 21/10 A2991 RMK A01 T02070103  RH  051%=      5-min Rain = 0
KPG1 180356Z 01013KT 21/10 A2991 RMK A01 T02070103  RH  051%=      5-min Rain = 0
KPG1 180357Z 02012KT 21/10 A2991 RMK A01 T02070102  RH  051%=      5-min Rain = 0
KPG1 180358Z 02013KT 21/10 A2991 RMK A01 T02080103  RH  051%=      5-min Rain = 0
KPG1 180359Z 02014KT 21/10 A2991 RMK A01 T02070104  RH  051%=      5-min Rain = 0
KPG1 180400Z 02014KT 21/10 A2991 RMK A01 T02070104  RH  052%=      5-min Rain = 0
KPG1 180401Z 03012KT 21/10 A2991 RMK A01 T02070104  RH  052%=      5-min Rain = 0
KPG1 180402Z 02013KT 21/10 A2991 RMK A01 T02070104  RH  051%=      5-min Rain = 0
KPG1 180403Z 02013KT 21/10 A2991 RMK A01 T02070104  RH  052%=      5-min Rain = 0
KPG1 180404Z 02013KT 21/10 A2991 RMK A01 T02060104  RH  052%=      5-min Rain = 0
KPG1 180405Z 03013KT 21/10 A2991 RMK A01 T02060104  RH  052%=      5-min Rain = 0
KPG1 180406Z 02014KT 20/10 A2991 RMK A01 T02040103  RH  052%=      5-min Rain = 0
KPG1 180407Z 03013KT 20/10 A2991 RMK A01 T02040104  RH  053%=      5-min Rain = 0
KPG1 180408Z 02011KT 20/10 A2991 RMK A01 T02040104  RH  053%=      5-min Rain = 0
KPG1 180409Z 02012KT 20/10 A2991 RMK A01 T02030103  RH  053%=      5-min Rain = 0
KPG1 180410Z 02013KT 20/10 A2991 RMK A01 T02030104  RH  053%=      5-min Rain = 0
KPG1 180411Z 02014KT 20/11 A2991 RMK A01 T02030105  RH  053%=      5-min Rain = 0
KPG1 180412Z 03013KT 20/11 A2991 RMK A01 T02030105  RH  053%=      5-min Rain = 0
KPG1 180413Z 03014KT 20/10 A2991 RMK A01 T02020104  RH  053%=      5-min Rain = 0
KPG1 180414Z 02011KT 20/10 A2991 RMK A01 T02020104  RH  053%=      5-min Rain = 0
KPG1 180415Z 02012KT 20/10 A299 RMK A01 T02010104  RH  053%=      5-min Rain = 0
KPG1 180416Z 02013KT 20/10 A2991 RMK A01 T02010104  RH  054%=      5-min Rain = 0
KPG1 180417Z 02012KT 20/10 A2991 RMK A01 T02010104  RH  054%=      5-min Rain = 0
KPG1 180418Z 02013KT 20/10 A2991 RMK A01 T02010104  RH  054%=      5-min Rain = 0
KPG1 180419Z 02013KT 20/10 A2991 RMK A01 T02000103  RH  054%=      5-min Rain = 0
KPG1 180420Z 02013KT 20/10 A2991 RMK A01 T01990104  RH  054%=      5-min Rain = 0
KPG1 180421Z 02014KT 20/10 A299 RMK A01 T01990104  RH  054%=      5-min Rain = 0
KPG1 180422Z 02014KT 20/11 A299 RMK A01 T02000105  RH  054%=      5-min Rain = 0
KPG1 180423Z 02015KT 20/11 A299 RMK A01 T02000105  RH  054%=      5-min Rain = 0
KPG1 180424Z 02013KT 20/11 A299 RMK A01 T02010105  RH  054%=      5-min Rain = 0
KPG1 180425Z 02015KT 20/11 A299 RMK A01 T02010105  RH  054%=      5-min Rain = 0
KPG1 180426Z 02015KT 20/11 A299 RMK A01 T02010105  RH  054%=      5-min Rain = 0
KPG1 180427Z 02015KT 20/11 A299 RMK A01 T02010105  RH  054%=      5-min Rain = 0
KPG1 180428Z 02015KT 20/11 A299 RMK A01 T02010105  RH  054%=      5-min Rain = 0
KPG1 180429Z 02015KT 20/11 A299 RMK A01 T02010105  RH  054%=      5-min Rain = 0
KPG1 180430Z 02014KT 20/11 A299 RMK A01 T02000105  RH  054%=      5-min Rain = 0
KPG1 180431Z 02015KT 20/11 A299 RMK A01 T02000105  RH  054%=      5-min Rain = 0
KPG1 180432Z 02015KT 20/11 A299 RMK A01 T02000106  RH  054%=      5-min Rain = 0
KPG1 180433Z 02015KT 20/11 A299 RMK A01 T02000105  RH  054%=      5-min Rain = 0
KPG1 180434Z 02014KT 20/11 A299 RMK A01 T01990105  RH  055%=      5-min Rain = 0
KPG1 180435Z 02015KT 20/11 A299 RMK A01 T01990106  RH  055%=      5-min Rain = 0
KPG1 180436Z 01015KT 20/11 A299 RMK A01 T01990106  RH  055%=      5-min Rain = 0
KPG1 180437Z 02014KT 20/11 A299 RMK A01 T01990106  RH  055%=      5-min Rain = 0
KPG1 180438Z 02015KT 20/11 A299 RMK A01 T01980106  RH  055%=      5-min Rain = 0
KPG1 180439Z 02016KT 20/11 A299 RMK A01 T01980106  RH  055%=      5-min Rain = 0
KPG1 180440Z 02015KT 20/11 A299 RMK A01 T01980106  RH  055%=      5-min Rain = 0
KPG1 180441Z 02014KT 20/11 A299 RMK A01 T01970106  RH  055%=      5-min Rain = 0
KPG1 180442Z 01014KT 20/11 A299 RMK A01 T01970106  RH  055%=      5-min Rain = 0
KPG1 180443Z 02015KT 20/11 A299 RMK A01 T01970106  RH  056%=      5-min Rain = 0
KPG1 180444Z 02014KT 20/11 A299 RMK A01 T01970106  RH  056%=      5-min Rain = 0
KPG1 180445Z 02011KT 20/11 A299 RMK A01 T01970106  RH  056%=      5-min Rain = 0
KPG1 180446Z 02012KT 20/11 A299 RMK A01 T01960105  RH  056%=      5-min Rain = 0
KPG1 180447Z 02014KT 19/11 A299 RMK A01 T01940105  RH  056%=      5-min Rain = 0
KPG1 180448Z 03013KT 19/11 A299 RMK A01 T01940105  RH  056%=      5-min Rain = 0
KPG1 180449Z 02015KT 19/11 A299 RMK A01 T01940105  RH  057%=      5-min Rain = 0
KPG1 180450Z 02015KT 19/11 A299 RMK A01 T01940106  RH  057%=      5-min Rain = 0
KPG1 180451Z 02014KT 19/11 A299 RMK A01 T01940106  RH  057%=      5-min Rain = 0
KPG1 180452Z 02014KT 19/11 A299 RMK A01 T01940106  RH  057%=      5-min Rain = 0
KPG1 180453Z 02014KT 19/11 A299 RMK A01 T01940106  RH  057%=      5-min Rain = 0
KPG1 180454Z 02014KT 20/11 A299 RMK A01 T01950107  RH  057%=      5-min Rain = 0
KPG1 180455Z 02015KT 20/11 A299 RMK A01 T01950106  RH  057%=      5-min Rain = 0
KPG1 180456Z 03013KT 20/11 A299 RMK A01 T01950107  RH  057%=      5-min Rain = 0
KPG1 180457Z 02013KT 19/11 A299 RMK A01 T01940106  RH  057%=      5-min Rain = 0
KPG1 180458Z 02014KT 19/11 A299 RMK A01 T01930106  RH  057%=      5-min Rain = 0
KPG1 180459Z 02013KT 19/11 A299 RMK A01 T01930107  RH  057%=      5-min Rain = 0

Page generated in 0.1216 seconds.